Time,TemperatureF,DewpointF,PressureIn,WindDirection,WindDirectionDegrees,WindSpeedMPH,WindSpeedGustMPH,Humidity,HourlyPrecipIn,Conditions,Clouds,dailyrainin,SoftwareType,DateUTC
2012-11-23 00:01:00,44.2,44.2,30.25,East,90,2.0,4.0,0,0.00,,,0.00,meteohub,2012-11-23 05:01:00,
2012-11-23 00:03:00,44.2,44.2,30.25,East,90,2.0,4.0,0,0.00,,,0.00,meteohub,2012-11-23 05:03:00,
2012-11-23 00:06:00,44.2,44.2,30.25,East,90,2.0,2.0,0,0.00,,,0.00,meteohub,2012-11-23 05:06:00,
2012-11-23 00:07:00,44.2,44.2,30.25,East,90,2.0,2.0,0,0.00,,,0.00,meteohub,2012-11-23 05:07:00,
2012-11-23 00:10:00,44.2,44.2,30.25,SE,135,2.0,2.0,0,0.00,,,0.00,meteohub,2012-11-23 05:10:00,
2012-11-23 00:12:00,44.2,44.2,30.25,SE,135,2.0,2.0,0,0.00,,,0.00,meteohub,2012-11-23 05:12:00,
2012-11-23 00:13:00,44.2,44.2,30.25,SE,135,2.0,2.0,0,0.00,,,0.00,meteohub,2012-11-23 05:13:00,
2012-11-23 00:15:00,44.2,44.2,30.25,SE,135,2.0,2.0,0,0.00,,,0.00,meteohub,2012-11-23 05:15:00,
2012-11-23 00:17:00,44.2,44.2,30.24,SE,135,2.0,2.0,0,0.00,,,0.00,meteohub,2012-11-23 05:17:00,
2012-11-23 00:18:00,44.2,44.2,30.24,SE,135,2.0,2.0,0,0.00,,,0.00,meteohub,2012-11-23 05:18:00,
2012-11-23 00:20:00,44.2,44.2,30.25,SE,135,3.0,3.0,0,0.00,,,0.00,meteohub,2012-11-23 05:20:00,
2012-11-23 00:22:00,44.2,44.2,30.25,East,90,2.0,2.0,0,0.00,,,0.00,meteohub,2012-11-23 05:22:00,
2012-11-23 00:23:00,44.4,44.4,30.25,SE,135,2.0,2.0,0,0.00,,,0.00,meteohub,2012-11-23 05:23:00,
2012-11-23 00:26:00,44.4,44.4,30.25,SE,135,2.0,3.0,0,0.00,,,0.00,meteohub,2012-11-23 05:26:00,
2012-11-23 00:27:00,44.6,44.6,30.25,South,180,4.0,4.0,0,0.00,,,0.00,meteohub,2012-11-23 05:27:00,
2012-11-23 00:28:00,44.8,44.8,30.25,South,180,7.0,7.0,0,0.00,,,0.00,meteohub,2012-11-23 05:28:00,
2012-11-23 00:29:00,45.0,45.0,30.25,WSW,248,4.0,4.0,0,0.00,,,0.00,meteohub,2012-11-23 05:29:00,
2012-11-23 00:32:00,45.5,45.5,30.25,WSW,248,4.0,7.0,0,0.00,,,0.00,meteohub,2012-11-23 05:32:00,
2012-11-23 00:33:00,45.7,45.7,30.25,WSW,248,2.0,7.0,0,0.00,,,0.00,meteohub,2012-11-23 05:33:00,
2012-11-23 00:34:00,45.9,45.9,30.25,South,180,2.0,7.0,0,0.00,,,0.00,meteohub,2012-11-23 05:34:00,
2012-11-23 00:37:00,45.9,45.9,30.25,SE,135,2.0,7.0,0,0.00,,,0.00,meteohub,2012-11-23 05:37:00,
2012-11-23 00:38:00,45.9,45.9,30.25,South,180,3.0,7.0,0,0.00,,,0.00,meteohub,2012-11-23 05:38:00,
2012-11-23 00:39:00,45.9,45.9,30.25,South,180,3.0,7.0,0,0.00,,,0.00,meteohub,2012-11-23 05:39:00,
2012-11-23 00:40:00,45.9,45.9,30.25,South,180,2.0,7.0,0,0.00,,,0.00,meteohub,2012-11-23 05:40:00,
2012-11-23 00:42:00,45.9,45.9,30.25,South,180,4.0,7.0,0,0.00,,,0.00,meteohub,2012-11-23 05:42:00,
2012-11-23 00:44:00,45.9,45.9,30.25,SE,135,4.0,7.0,0,0.00,,,0.00,meteohub,2012-11-23 05:44:00,
2012-11-23 00:45:00,46.0,46.0,30.25,South,180,4.0,7.0,0,0.00,,,0.00,meteohub,2012-11-23 05:45:00,
2012-11-23 00:48:00,46.4,46.4,30.25,WSW,248,3.0,6.0,0,0.00,,,0.00,meteohub,2012-11-23 05:48:00,
2012-11-23 00:49:00,46.2,46.2,30.25,South,180,4.0,6.0,0,0.00,,,0.00,meteohub,2012-11-23 05:49:00,
2012-11-23 00:50:00,46.4,46.4,30.25,South,180,4.0,6.0,0,0.00,,,0.00,meteohub,2012-11-23 05:50:00,
2012-11-23 00:52:00,46.4,46.4,30.25,South,180,3.0,6.0,0,0.00,,,0.00,meteohub,2012-11-23 05:52:00,
2012-11-23 00:53:00,46.4,46.4,30.24,South,180,3.0,6.0,0,0.00,,,0.00,meteohub,2012-11-23 05:53:00,
2012-11-23 00:55:00,46.4,46.4,30.25,WSW,248,3.0,6.0,0,0.00,,,0.00,meteohub,2012-11-23 05:55:00,
2012-11-23 00:56:00,46.4,46.4,30.25,South,180,4.0,6.0,0,0.00,,,0.00,meteohub,2012-11-23 05:56:00,
2012-11-23 00:57:00,46.4,46.4,30.25,South,180,4.0,6.0,0,0.00,,,0.00,meteohub,2012-11-23 05:57:00,
2012-11-23 00:58:00,46.4,46.4,30.25,South,180,2.0,6.0,0,0.00,,,0.00,meteohub,2012-11-23 05:58:00,
2012-11-23 01:01:00,46.2,46.2,30.25,West,270,4.0,6.0,0,0.00,,,0.00,meteohub,2012-11-23 06:01:00,
2012-11-23 01:02:00,46.2,46.2,30.24,West,270,4.0,6.0,0,0.00,,,0.00,meteohub,2012-11-23 06:02:00,
2012-11-23 01:03:00,46.2,46.2,30.25,West,270,4.0,6.0,0,0.00,,,0.00,meteohub,2012-11-23 06:03:00,
2012-11-23 01:04:00,46.2,46.2,30.25,West,270,4.0,6.0,0,0.00,,,0.00,meteohub,2012-11-23 06:04:00,
2012-11-23 01:06:00,46.2,46.2,30.24,West,270,4.0,5.0,0,0.00,,,0.00,meteohub,2012-11-23 06:06:00,
2012-11-23 01:07:00,46.2,46.2,30.24,West,270,4.0,5.0,0,0.00,,,0.00,meteohub,2012-11-23 06:07:00,
2012-11-23 01:09:00,46.9,46.9,30.24,South,180,3.0,5.0,0,0.00,,,0.00,meteohub,2012-11-23 06:09:00,
2012-11-23 01:12:00,47.1,47.1,30.24,WSW,248,5.0,5.0,0,0.00,,,0.00,meteohub,2012-11-23 06:12:00,
2012-11-23 01:14:00,47.1,47.1,30.24,South,180,4.0,5.0,0,0.00,,,0.00,meteohub,2012-11-23 06:14:00,
2012-11-23 01:15:00,46.9,46.9,30.24,South,180,3.0,6.0,0,0.00,,,0.00,meteohub,2012-11-23 06:15:00,
2012-11-23 01:17:00,46.9,46.9,30.24,East,90,3.0,6.0,0,0.00,,,0.00,meteohub,2012-11-23 06:17:00,
2012-11-23 01:19:00,46.8,46.8,30.24,SSE,158,3.0,6.0,0,0.00,,,0.00,meteohub,2012-11-23 06:19:00,
2012-11-23 01:21:00,46.8,46.8,30.24,South,180,5.0,6.0,0,0.00,,,0.00,meteohub,2012-11-23 06:21:00,
2012-11-23 01:23:00,46.8,46.8,30.24,South,180,3.0,6.0,0,0.00,,,0.00,meteohub,2012-11-23 06:23:00,
2012-11-23 01:25:00,46.8,46.8,30.24,SE,135,5.0,6.0,0,0.00,,,0.00,meteohub,2012-11-23 06:25:00,
2012-11-23 01:27:00,46.6,46.6,30.24,South,180,4.0,5.0,0,0.00,,,0.00,meteohub,2012-11-23 06:27:00,
2012-11-23 01:29:00,46.6,46.6,30.24,SE,135,5.0,5.0,0,0.00,,,0.00,meteohub,2012-11-23 06:29:00,
2012-11-23 01:31:00,46.6,46.6,30.24,South,180,4.0,7.0,0,0.00,,,0.00,meteohub,2012-11-23 06:31:00,
2012-11-23 01:32:00,46.4,46.4,30.24,SE,135,3.0,7.0,0,0.00,,,0.00,meteohub,2012-11-23 06:32:00,
2012-11-23 01:34:00,46.4,46.4,30.24,SE,135,4.0,7.0,0,0.00,,,0.00,meteohub,2012-11-23 06:34:00,
2012-11-23 01:36:00,46.2,46.2,30.24,SE,135,3.0,7.0,0,0.00,,,0.00,meteohub,2012-11-23 06:36:00,
2012-11-23 01:37:00,46.2,46.2,30.24,South,180,4.0,7.0,0,0.00,,,0.00,meteohub,2012-11-23 06:37:00,
2012-11-23 01:40:00,46.0,46.0,30.24,South,180,3.0,7.0,0,0.00,,,0.00,meteohub,2012-11-23 06:40:00,
2012-11-23 01:41:00,45.9,45.9,30.24,South,180,3.0,6.0,0,0.00,,,0.00,meteohub,2012-11-23 06:41:00,
2012-11-23 01:43:00,45.9,45.9,30.24,SE,135,4.0,6.0,0,0.00,,,0.00,meteohub,2012-11-23 06:43:00,
2012-11-23 01:45:00,45.7,45.7,30.24,SE,135,4.0,6.0,0,0.00,,,0.00,meteohub,2012-11-23 06:45:00,
2012-11-23 01:46:00,45.7,45.7,30.24,South,180,4.0,6.0,0,0.00,,,0.00,meteohub,2012-11-23 06:46:00,
2012-11-23 01:47:00,45.7,45.7,30.24,West,270,4.0,6.0,0,0.00,,,0.00,meteohub,2012-11-23 06:47:00,
2012-11-23 01:49:00,45.5,45.5,30.24,South,180,4.0,6.0,0,0.00,,,0.00,meteohub,2012-11-23 06:49:00,
2012-11-23 01:51:00,45.5,45.5,30.23,South,180,6.0,6.0,0,0.00,,,0.00,meteohub,2012-11-23 06:51:00,
2012-11-23 01:52:00,45.5,45.5,30.24,South,180,2.0,6.0,0,0.00,,,0.00,meteohub,2012-11-23 06:52:00,
2012-11-23 01:54:00,45.5,45.5,30.24,South,180,4.0,6.0,0,0.00,,,0.00,meteohub,2012-11-23 06:54:00,
2012-11-23 01:55:00,45.5,45.5,30.24,South,180,4.0,6.0,0,0.00,,,0.00,meteohub,2012-11-23 06:55:00,
2012-11-23 01:56:00,45.5,45.5,30.23,South,180,5.0,6.0,0,0.00,,,0.00,meteohub,2012-11-23 06:56:00,
2012-11-23 01:57:00,45.5,45.5,30.23,South,180,5.0,6.0,0,0.00,,,0.00,meteohub,2012-11-23 06:57:00,
2012-11-23 01:59:00,45.5,45.5,30.24,South,180,6.0,6.0,0,0.00,,,0.00,meteohub,2012-11-23 06:59:00,
2012-11-23 02:00:00,45.5,45.5,30.24,South,180,4.0,6.0,0,0.00,,,0.00,meteohub,2012-11-23 07:00:00,
2012-11-23 02:02:00,45.5,45.5,30.23,South,180,4.0,6.0,0,0.00,,,0.00,meteohub,2012-11-23 07:02:00,
2012-11-23 02:05:00,45.7,45.7,30.23,WSW,248,6.0,6.0,0,0.00,,,0.00,meteohub,2012-11-23 07:05:00,
2012-11-23 02:07:00,45.7,45.7,30.23,South,180,3.0,6.0,0,0.00,,,0.00,meteohub,2012-11-23 07:07:00,
2012-11-23 02:11:00,45.7,45.7,30.24,South,180,3.0,8.0,0,0.00,,,0.00,meteohub,2012-11-23 07:11:00,
2012-11-23 02:12:00,45.9,45.9,30.24,WSW,248,8.0,8.0,0,0.00,,,0.00,meteohub,2012-11-23 07:12:00,
2012-11-23 02:13:00,45.9,45.9,30.23,South,180,4.0,8.0,0,0.00,,,0.00,meteohub,2012-11-23 07:13:00,
2012-11-23 02:16:00,46.0,46.0,30.23,South,180,8.0,8.0,0,0.00,,,0.00,meteohub,2012-11-23 07:16:00,
2012-11-23 02:18:00,46.0,46.0,30.23,South,180,8.0,8.0,0,0.00,,,0.00,meteohub,2012-11-23 07:18:00,
2012-11-23 02:19:00,46.0,46.0,30.23,South,180,8.0,8.0,0,0.00,,,0.00,meteohub,2012-11-23 07:19:00,
2012-11-23 02:21:00,45.9,45.9,30.23,West,270,3.0,8.0,0,0.00,,,0.00,meteohub,2012-11-23 07:21:00,
2012-11-23 02:23:00,45.9,45.9,30.23,WSW,248,8.0,8.0,0,0.00,,,0.00,meteohub,2012-11-23 07:23:00,
2012-11-23 02:25:00,45.9,45.9,30.23,South,180,5.0,8.0,0,0.00,,,0.00,meteohub,2012-11-23 07:25:00,
2012-11-23 02:26:00,45.9,45.9,30.23,South,180,6.0,8.0,0,0.00,,,0.00,meteohub,2012-11-23 07:26:00,
2012-11-23 02:28:00,45.9,45.9,30.23,South,180,6.0,8.0,0,0.00,,,0.00,meteohub,2012-11-23 07:28:00,
2012-11-23 02:30:00,45.9,45.9,30.22,South,180,5.0,8.0,0,0.00,,,0.00,meteohub,2012-11-23 07:30:00,
2012-11-23 02:32:00,45.9,45.9,30.22,South,180,6.0,8.0,0,0.00,,,0.00,meteohub,2012-11-23 07:32:00,
2012-11-23 02:34:00,45.9,45.9,30.22,South,180,6.0,8.0,0,0.00,,,0.00,meteohub,2012-11-23 07:34:00,
2012-11-23 02:35:00,45.9,45.9,30.22,South,180,6.0,8.0,0,0.00,,,0.00,meteohub,2012-11-23 07:35:00,
2012-11-23 02:36:00,45.9,45.9,30.22,South,180,6.0,8.0,0,0.00,,,0.00,meteohub,2012-11-23 07:36:00,
2012-11-23 02:37:00,45.9,45.9,30.23,South,180,6.0,8.0,0,0.00,,,0.00,meteohub,2012-11-23 07:37:00,
2012-11-23 02:39:00,45.7,45.7,30.23,SE,135,5.0,8.0,0,0.00,,,0.00,meteohub,2012-11-23 07:39:00,
2012-11-23 02:40:00,45.7,45.7,30.23,SE,135,3.0,8.0,0,0.00,,,0.00,meteohub,2012-11-23 07:40:00,
2012-11-23 02:42:00,45.7,45.7,30.22,SE,135,6.0,7.0,0,0.00,,,0.00,meteohub,2012-11-23 07:42:00,
2012-11-23 02:43:00,45.5,45.5,30.22,South,180,4.0,7.0,0,0.00,,,0.00,meteohub,2012-11-23 07:43:00,
2012-11-23 02:44:00,45.5,45.5,30.22,SE,135,3.0,7.0,0,0.00,,,0.00,meteohub,2012-11-23 07:44:00,
2012-11-23 02:45:00,45.5,45.5,30.22,SE,135,3.0,7.0,0,0.00,,,0.00,meteohub,2012-11-23 07:45:00,
2012-11-23 02:47:00,45.5,45.5,30.23,SSE,158,3.0,6.0,0,0.00,,,0.00,meteohub,2012-11-23 07:47:00,
2012-11-23 02:48:00,45.3,45.3,30.23,South,180,5.0,6.0,0,0.00,,,0.00,meteohub,2012-11-23 07:48:00,
2012-11-23 02:50:00,45.3,45.3,30.22,South,180,5.0,6.0,0,0.00,,,0.00,meteohub,2012-11-23 07:50:00,
2012-11-23 02:51:00,45.3,45.3,30.22,South,180,5.0,6.0,0,0.00,,,0.00,meteohub,2012-11-23 07:51:00,
2012-11-23 02:52:00,45.3,45.3,30.22,South,180,4.0,6.0,0,0.00,,,0.00,meteohub,2012-11-23 07:52:00,
2012-11-23 02:54:00,45.1,45.1,30.22,South,180,3.0,6.0,0,0.00,,,0.00,meteohub,2012-11-23 07:54:00,
2012-11-23 02:55:00,45.1,45.1,30.23,WSW,248,5.0,6.0,0,0.00,,,0.00,meteohub,2012-11-23 07:55:00,
2012-11-23 02:56:00,45.1,45.1,30.22,SE,135,4.0,6.0,0,0.00,,,0.00,meteohub,2012-11-23 07:56:00,
2012-11-23 02:57:00,45.3,45.3,30.22,South,180,7.0,7.0,0,0.00,,,0.00,meteohub,2012-11-23 07:57:00,
2012-11-23 02:59:00,45.3,45.3,30.22,South,180,4.0,6.0,0,0.00,,,0.00,meteohub,2012-11-23 07:59:00,
2012-11-23 03:01:00,45.3,45.3,30.22,WSW,248,8.0,8.0,0,0.00,,,0.00,meteohub,2012-11-23 08:01:00,
2012-11-23 03:02:00,45.3,45.3,30.21,WSW,248,8.0,8.0,0,0.00,,,0.00,meteohub,2012-11-23 08:02:00,
2012-11-23 03:05:00,45.3,45.3,30.21,WSW,248,8.0,8.0,0,0.00,,,0.00,meteohub,2012-11-23 08:05:00,
2012-11-23 03:06:00,45.3,45.3,30.21,WSW,248,8.0,8.0,0,0.00,,,0.00,meteohub,2012-11-23 08:06:00,
2012-11-23 03:07:00,45.3,45.3,30.21,WSW,248,8.0,8.0,0,0.00,,,0.00,meteohub,2012-11-23 08:07:00,
2012-11-23 03:08:00,45.7,45.7,30.21,WSW,248,4.0,8.0,0,0.00,,,0.00,meteohub,2012-11-23 08:08:00,
2012-11-23 03:11:00,45.7,45.7,30.21,SE,135,6.0,8.0,0,0.00,,,0.00,meteohub,2012-11-23 08:11:00,
2012-11-23 03:13:00,45.7,45.7,30.21,South,180,5.0,8.0,0,0.00,,,0.00,meteohub,2012-11-23 08:13:00,
2012-11-23 03:16:00,45.5,45.5,30.21,South,180,4.0,8.0,0,0.00,,,0.00,meteohub,2012-11-23 08:16:00,
2012-11-23 03:18:00,45.5,45.5,30.21,South,180,5.0,8.0,0,0.00,,,0.00,meteohub,2012-11-23 08:18:00,
2012-11-23 03:20:00,45.5,45.5,30.21,South,180,3.0,11.0,0,0.00,,,0.00,meteohub,2012-11-23 08:20:00,
2012-11-23 03:21:00,45.5,45.5,30.21,South,180,3.0,11.0,0,0.00,,,0.00,meteohub,2012-11-23 08:21:00,
2012-11-23 03:22:00,45.5,45.5,30.20,South,180,6.0,11.0,0,0.00,,,0.00,meteohub,2012-11-23 08:22:00,
2012-11-23 03:24:00,45.3,45.3,30.20,South,180,4.0,11.0,0,0.00,,,0.00,meteohub,2012-11-23 08:24:00,
2012-11-23 03:25:00,45.1,45.1,30.20,South,180,5.0,11.0,0,0.00,,,0.00,meteohub,2012-11-23 08:25:00,
2012-11-23 03:27:00,45.1,45.1,30.20,South,180,5.0,11.0,0,0.00,,,0.00,meteohub,2012-11-23 08:27:00,
2012-11-23 03:29:00,45.0,45.0,30.20,South,180,4.0,11.0,0,0.00,,,0.00,meteohub,2012-11-23 08:29:00,
2012-11-23 03:31:00,45.0,45.0,30.20,East,90,2.0,11.0,0,0.00,,,0.00,meteohub,2012-11-23 08:31:00,
2012-11-23 03:34:00,45.0,45.0,30.20,South,180,4.0,11.0,0,0.00,,,0.00,meteohub,2012-11-23 08:34:00,
2012-11-23 03:35:00,45.0,45.0,30.20,WSW,248,5.0,8.0,0,0.00,,,0.00,meteohub,2012-11-23 08:35:00,
2012-11-23 03:37:00,44.8,44.8,30.20,WSW,248,6.0,8.0,0,0.00,,,0.00,meteohub,2012-11-23 08:37:00,
2012-11-23 03:39:00,44.8,44.8,30.19,SE,135,4.0,8.0,0,0.00,,,0.00,meteohub,2012-11-23 08:39:00,
2012-11-23 03:40:00,44.8,44.8,30.19,South,180,6.0,8.0,0,0.00,,,0.00,meteohub,2012-11-23 08:40:00,
2012-11-23 03:42:00,44.6,44.6,30.19,WSW,248,4.0,8.0,0,0.00,,,0.00,meteohub,2012-11-23 08:42:00,
2012-11-23 03:45:00,44.6,44.6,30.19,South,180,4.0,8.0,0,0.00,,,0.00,meteohub,2012-11-23 08:45:00,
2012-11-23 03:46:00,44.6,44.6,30.19,South,180,4.0,8.0,0,0.00,,,0.00,meteohub,2012-11-23 08:46:00,
2012-11-23 03:48:00,44.6,44.6,30.19,South,180,8.0,8.0,0,0.00,,,0.00,meteohub,2012-11-23 08:48:00,
2012-11-23 03:51:00,44.6,44.6,30.19,WSW,248,5.0,8.0,0,0.00,,,0.00,meteohub,2012-11-23 08:51:00,
2012-11-23 03:52:00,44.6,44.6,30.19,WSW,248,6.0,8.0,0,0.00,,,0.00,meteohub,2012-11-23 08:52:00,
2012-11-23 03:53:00,44.6,44.6,30.19,SE,135,4.0,8.0,0,0.00,,,0.00,meteohub,2012-11-23 08:53:00,
2012-11-23 03:56:00,44.6,44.6,30.19,South,180,8.0,8.0,0,0.00,,,0.00,meteohub,2012-11-23 08:56:00,
2012-11-23 03:57:00,44.6,44.6,30.19,South,180,4.0,8.0,0,0.00,,,0.00,meteohub,2012-11-23 08:57:00,
2012-11-23 03:58:00,44.6,44.6,30.19,WSW,248,4.0,8.0,0,0.00,,,0.00,meteohub,2012-11-23 08:58:00,
2012-11-23 04:00:00,44.6,44.6,30.19,SE,135,8.0,8.0,0,0.00,,,0.00,meteohub,2012-11-23 09:00:00,
2012-11-23 04:02:00,44.4,44.4,30.19,SSE,158,4.0,8.0,0,0.00,,,0.00,meteohub,2012-11-23 09:02:00,
2012-11-23 04:03:00,44.4,44.4,30.19,SSE,158,4.0,8.0,0,0.00,,,0.00,meteohub,2012-11-23 09:03:00,
2012-11-23 04:05:00,44.4,44.4,30.19,South,180,5.0,8.0,0,0.00,,,0.00,meteohub,2012-11-23 09:05:00,
2012-11-23 04:08:00,44.2,44.2,30.19,South,180,4.0,8.0,0,0.00,,,0.00,meteohub,2012-11-23 09:08:00,
2012-11-23 04:10:00,44.2,44.2,30.19,South,180,5.0,8.0,0,0.00,,,0.00,meteohub,2012-11-23 09:10:00,
2012-11-23 04:11:00,44.2,44.2,30.19,South,180,4.0,8.0,0,0.00,,,0.00,meteohub,2012-11-23 09:11:00,
2012-11-23 04:14:00,44.2,44.2,30.18,South,180,4.0,8.0,0,0.00,,,0.00,meteohub,2012-11-23 09:14:00,
2012-11-23 04:15:00,44.2,44.2,30.18,South,180,4.0,9.0,0,0.00,,,0.00,meteohub,2012-11-23 09:15:00,
2012-11-23 04:16:00,44.2,44.2,30.18,South,180,4.0,9.0,0,0.00,,,0.00,meteohub,2012-11-23 09:16:00,
2012-11-23 04:17:00,44.2,44.2,30.18,SE,135,6.0,9.0,0,0.00,,,0.00,meteohub,2012-11-23 09:17:00,
2012-11-23 04:19:00,44.1,44.1,30.18,South,180,7.0,9.0,0,0.00,,,0.00,meteohub,2012-11-23 09:19:00,
2012-11-23 04:20:00,44.1,44.1,30.18,South,180,5.0,9.0,0,0.00,,,0.00,meteohub,2012-11-23 09:20:00,
2012-11-23 04:21:00,44.1,44.1,30.18,South,180,7.0,9.0,0,0.00,,,0.00,meteohub,2012-11-23 09:21:00,
2012-11-23 04:24:00,44.1,44.1,30.18,South,180,5.0,9.0,0,0.00,,,0.00,meteohub,2012-11-23 09:24:00,
2012-11-23 04:25:00,44.1,44.1,30.18,WSW,248,8.0,9.0,0,0.00,,,0.00,meteohub,2012-11-23 09:25:00,
2012-11-23 04:27:00,44.1,44.1,30.18,South,180,4.0,9.0,0,0.00,,,0.00,meteohub,2012-11-23 09:27:00,
2012-11-23 04:30:00,44.2,44.2,30.18,WSW,248,4.0,9.0,0,0.00,,,0.00,meteohub,2012-11-23 09:30:00,
2012-11-23 04:31:00,44.2,44.2,30.18,WSW,248,4.0,9.0,0,0.00,,,0.00,meteohub,2012-11-23 09:31:00,
2012-11-23 04:32:00,44.2,44.2,30.18,WSW,248,4.0,9.0,0,0.00,,,0.00,meteohub,2012-11-23 09:32:00,
2012-11-23 04:35:00,44.2,44.2,30.18,WSW,248,4.0,9.0,0,0.00,,,0.00,meteohub,2012-11-23 09:35:00,
2012-11-23 04:36:00,44.2,44.2,30.18,WSW,248,4.0,9.0,0,0.00,,,0.00,meteohub,2012-11-23 09:36:00,
2012-11-23 04:39:00,44.6,44.6,30.18,SE,135,4.0,9.0,0,0.00,,,0.00,meteohub,2012-11-23 09:39:00,
2012-11-23 04:40:00,44.4,44.4,30.18,WSW,248,4.0,9.0,0,0.00,,,0.00,meteohub,2012-11-23 09:40:00,
2012-11-23 04:41:00,44.4,44.4,30.18,South,180,4.0,10.0,0,0.00,,,0.00,meteohub,2012-11-23 09:41:00,
2012-11-23 04:42:00,44.4,44.4,30.18,WSW,248,8.0,10.0,0,0.00,,,0.00,meteohub,2012-11-23 09:42:00,
2012-11-23 04:45:00,44.4,44.4,30.18,East,90,5.0,10.0,0,0.00,,,0.00,meteohub,2012-11-23 09:45:00,
2012-11-23 04:46:00,44.2,44.2,30.18,South,180,6.0,10.0,0,0.00,,,0.00,meteohub,2012-11-23 09:46:00,
2012-11-23 04:47:00,44.2,44.2,30.18,South,180,6.0,10.0,0,0.00,,,0.00,meteohub,2012-11-23 09:47:00,
2012-11-23 04:50:00,44.2,44.2,30.18,South,180,5.0,10.0,0,0.00,,,0.00,meteohub,2012-11-23 09:50:00,
2012-11-23 04:51:00,44.2,44.2,30.18,WSW,248,8.0,10.0,0,0.00,,,0.00,meteohub,2012-11-23 09:51:00,
2012-11-23 04:52:00,44.4,44.4,30.18,WSW,248,10.0,10.0,0,0.00,,,0.00,meteohub,2012-11-23 09:52:00,
2012-11-23 04:54:00,44.4,44.4,30.18,South,180,10.0,10.0,0,0.00,,,0.00,meteohub,2012-11-23 09:54:00,
2012-11-23 04:56:00,44.6,44.6,30.18,WSW,248,8.0,10.0,0,0.00,,,0.00,meteohub,2012-11-23 09:56:00,
2012-11-23 04:57:00,44.6,44.6,30.18,WSW,248,8.0,10.0,0,0.00,,,0.00,meteohub,2012-11-23 09:57:00,
2012-11-23 04:58:00,44.6,44.6,30.17,WSW,248,4.0,10.0,0,0.00,,,0.00,meteohub,2012-11-23 09:58:00,
2012-11-23 04:59:00,44.6,44.6,30.18,South,180,5.0,10.0,0,0.00,,,0.00,meteohub,2012-11-23 09:59:00,
2012-11-23 05:02:00,44.6,44.6,30.18,SE,135,8.0,10.0,0,0.00,,,0.00,meteohub,2012-11-23 10:02:00,
2012-11-23 05:03:00,44.6,44.6,30.17,SE,135,8.0,10.0,0,0.00,,,0.00,meteohub,2012-11-23 10:03:00,
2012-11-23 05:04:00,44.6,44.6,30.17,SE,135,8.0,10.0,0,0.00,,,0.00,meteohub,2012-11-23 10:04:00,
2012-11-23 05:07:00,44.6,44.6,30.17,SE,135,8.0,10.0,0,0.00,,,0.00,meteohub,2012-11-23 10:07:00,
2012-11-23 05:08:00,44.2,44.2,30.17,WSW,248,8.0,10.0,0,0.00,,,0.00,meteohub,2012-11-23 10:08:00,
2012-11-23 05:09:00,44.2,44.2,30.17,South,180,8.0,10.0,0,0.00,,,0.00,meteohub,2012-11-23 10:09:00,
2012-11-23 05:12:00,44.4,44.4,30.17,WSW,248,8.0,10.0,0,0.00,,,0.00,meteohub,2012-11-23 10:12:00,
2012-11-23 05:14:00,44.6,44.6,30.17,SE,135,5.0,10.0,0,0.00,,,0.00,meteohub,2012-11-23 10:14:00,
2012-11-23 05:15:00,44.6,44.6,30.17,SE,135,5.0,10.0,0,0.00,,,0.00,meteohub,2012-11-23 10:15:00,
2012-11-23 05:17:00,44.6,44.6,30.17,West,270,8.0,10.0,0,0.00,,,0.00,meteohub,2012-11-23 10:17:00,
2012-11-23 05:19:00,44.6,44.6,30.17,South,180,6.0,10.0,0,0.00,,,0.00,meteohub,2012-11-23 10:19:00,
2012-11-23 05:20:00,44.6,44.6,30.16,WSW,248,3.0,10.0,0,0.00,,,0.00,meteohub,2012-11-23 10:20:00,
2012-11-23 05:23:00,44.4,44.4,30.16,South,180,9.0,10.0,0,0.00,,,0.00,meteohub,2012-11-23 10:23:00,
2012-11-23 05:24:00,44.6,44.6,30.16,South,180,10.0,10.0,0,0.00,,,0.00,meteohub,2012-11-23 10:24:00,
2012-11-23 05:26:00,44.6,44.6,30.16,South,180,8.0,10.0,0,0.00,,,0.00,meteohub,2012-11-23 10:26:00,
2012-11-23 05:28:00,44.6,44.6,30.16,WSW,248,7.0,10.0,0,0.00,,,0.00,meteohub,2012-11-23 10:28:00,
2012-11-23 05:29:00,44.6,44.6,30.16,WSW,248,8.0,10.0,0,0.00,,,0.00,meteohub,2012-11-23 10:29:00,
2012-11-23 05:31:00,44.6,44.6,30.16,SE,135,6.0,10.0,0,0.00,,,0.00,meteohub,2012-11-23 10:31:00,
2012-11-23 05:33:00,44.6,44.6,30.16,South,180,5.0,10.0,0,0.00,,,0.00,meteohub,2012-11-23 10:33:00,
2012-11-23 05:35:00,44.4,44.4,30.16,WSW,248,7.0,10.0,0,0.00,,,0.00,meteohub,2012-11-23 10:35:00,
2012-11-23 05:37:00,44.4,44.4,30.16,South,180,8.0,10.0,0,0.00,,,0.00,meteohub,2012-11-23 10:37:00,
2012-11-23 05:38:00,44.2,44.2,30.16,South,180,8.0,10.0,0,0.00,,,0.00,meteohub,2012-11-23 10:38:00,
2012-11-23 05:40:00,44.4,44.4,30.15,South,180,9.0,10.0,0,0.00,,,0.00,meteohub,2012-11-23 10:40:00,
2012-11-23 05:42:00,44.2,44.2,30.15,South,180,7.0,10.0,0,0.00,,,0.00,meteohub,2012-11-23 10:42:00,
2012-11-23 05:43:00,44.2,44.2,30.15,South,180,6.0,10.0,0,0.00,,,0.00,meteohub,2012-11-23 10:43:00,
2012-11-23 05:46:00,44.1,44.1,30.15,WSW,248,8.0,9.0,0,0.00,,,0.00,meteohub,2012-11-23 10:46:00,
2012-11-23 05:47:00,44.1,44.1,30.15,South,180,9.0,9.0,0,0.00,,,0.00,meteohub,2012-11-23 10:47:00,
2012-11-23 05:48:00,44.1,44.1,30.15,South,180,9.0,9.0,0,0.00,,,0.00,meteohub,2012-11-23 10:48:00,
2012-11-23 05:51:00,44.1,44.1,30.15,North,0,9.0,9.0,0,0.00,,,0.00,meteohub,2012-11-23 10:51:00,
2012-11-23 05:52:00,44.1,44.1,30.15,West,270,4.0,9.0,0,0.00,,,0.00,meteohub,2012-11-23 10:52:00,
2012-11-23 05:53:00,44.1,44.1,30.15,South,180,8.0,9.0,0,0.00,,,0.00,meteohub,2012-11-23 10:53:00,
2012-11-23 05:54:00,44.1,44.1,30.15,WSW,248,7.0,9.0,0,0.00,,,0.00,meteohub,2012-11-23 10:54:00,
2012-11-23 05:56:00,44.1,44.1,30.15,WSW,248,11.0,11.0,0,0.00,,,0.00,meteohub,2012-11-23 10:56:00,
2012-11-23 05:57:00,44.1,44.1,30.15,South,180,11.0,11.0,0,0.00,,,0.00,meteohub,2012-11-23 10:57:00,
2012-11-23 05:58:00,44.1,44.1,30.14,South,180,8.0,9.0,0,0.00,,,0.00,meteohub,2012-11-23 10:58:00,
2012-11-23 05:59:00,44.2,44.2,30.15,WSW,248,8.0,9.0,0,0.00,,,0.00,meteohub,2012-11-23 10:59:00,
2012-11-23 06:01:00,44.2,44.2,30.15,WSW,248,9.0,11.0,0,0.00,,,0.00,meteohub,2012-11-23 11:01:00,
2012-11-23 06:02:00,44.2,44.2,30.15,WSW,248,10.0,11.0,0,0.00,,,0.00,meteohub,2012-11-23 11:02:00,
2012-11-23 06:03:00,44.2,44.2,30.15,SE,135,11.0,11.0,0,0.00,,,0.00,meteohub,2012-11-23 11:03:00,
2012-11-23 06:06:00,44.2,44.2,30.15,WSW,248,12.0,12.0,0,0.00,,,0.00,meteohub,2012-11-23 11:06:00,
2012-11-23 06:07:00,44.2,44.2,30.14,South,180,6.0,11.0,0,0.00,,,0.00,meteohub,2012-11-23 11:07:00,
2012-11-23 06:08:00,44.2,44.2,30.15,South,180,7.0,11.0,0,0.00,,,0.00,meteohub,2012-11-23 11:08:00,
2012-11-23 06:09:00,44.2,44.2,30.15,South,180,7.0,11.0,0,0.00,,,0.00,meteohub,2012-11-23 11:09:00,
2012-11-23 06:11:00,44.2,44.2,30.14,SE,135,8.0,12.0,0,0.00,,,0.00,meteohub,2012-11-23 11:11:00,
2012-11-23 06:12:00,44.2,44.2,30.15,WSW,248,7.0,12.0,0,0.00,,,0.00,meteohub,2012-11-23 11:12:00,
2012-11-23 06:13:00,44.2,44.2,30.14,NW,315,4.0,12.0,0,0.00,,,0.00,meteohub,2012-11-23 11:13:00,
2012-11-23 06:14:00,44.2,44.2,30.14,WSW,248,9.0,12.0,0,0.00,,,0.00,meteohub,2012-11-23 11:14:00,
2012-11-23 06:17:00,44.2,44.2,30.14,WSW,248,10.0,12.0,0,0.00,,,0.00,meteohub,2012-11-23 11:17:00,
2012-11-23 06:18:00,44.2,44.2,30.14,WSW,248,10.0,12.0,0,0.00,,,0.00,meteohub,2012-11-23 11:18:00,
2012-11-23 06:19:00,44.2,44.2,30.15,WSW,248,10.0,12.0,0,0.00,,,0.00,meteohub,2012-11-23 11:19:00,
2012-11-23 06:23:00,44.2,44.2,30.14,South,180,4.0,12.0,0,0.00,,,0.00,meteohub,2012-11-23 11:23:00,
2012-11-23 06:24:00,44.2,44.2,30.14,South,180,4.0,12.0,0,0.00,,,0.00,meteohub,2012-11-23 11:24:00,
2012-11-23 06:26:00,44.2,44.2,30.14,South,180,4.0,12.0,0,0.00,,,0.00,meteohub,2012-11-23 11:26:00,
2012-11-23 06:28:00,44.1,44.1,30.14,South,180,5.0,12.0,0,0.00,,,0.00,meteohub,2012-11-23 11:28:00,
2012-11-23 06:29:00,44.1,44.1,30.14,South,180,5.0,12.0,0,0.00,,,0.00,meteohub,2012-11-23 11:29:00,
2012-11-23 06:30:00,44.1,44.1,30.14,WSW,248,3.0,12.0,0,0.00,,,0.00,meteohub,2012-11-23 11:30:00,
2012-11-23 06:32:00,44.1,44.1,30.14,South,180,5.0,12.0,0,0.00,,,0.00,meteohub,2012-11-23 11:32:00,
2012-11-23 06:34:00,44.1,44.1,30.14,SE,135,8.0,12.0,0,0.00,,,0.00,meteohub,2012-11-23 11:34:00,
2012-11-23 06:36:00,43.9,43.9,30.14,South,180,7.0,12.0,0,0.00,,,0.00,meteohub,2012-11-23 11:36:00,
2012-11-23 06:38:00,43.9,43.9,30.14,South,180,4.0,12.0,0,0.00,,,0.00,meteohub,2012-11-23 11:38:00,
2012-11-23 06:39:00,43.9,43.9,30.13,SE,135,7.0,12.0,0,0.00,,,0.00,meteohub,2012-11-23 11:39:00,
2012-11-23 06:41:00,43.9,43.9,30.14,East,90,6.0,8.0,0,0.00,,,0.00,meteohub,2012-11-23 11:41:00,
2012-11-23 06:42:00,43.9,43.9,30.14,SE,135,5.0,8.0,0,0.00,,,0.00,meteohub,2012-11-23 11:42:00,
2012-11-23 06:44:00,43.9,43.9,30.13,South,180,9.0,9.0,0,0.00,,,0.00,meteohub,2012-11-23 11:44:00,
2012-11-23 06:45:00,43.9,43.9,30.13,SE,135,3.0,8.0,0,0.00,,,0.00,meteohub,2012-11-23 11:45:00,
2012-11-23 06:46:00,43.7,43.7,30.13,WSW,248,8.0,9.0,0,0.00,,,0.00,meteohub,2012-11-23 11:46:00,
2012-11-23 06:48:00,43.9,43.9,30.13,South,180,9.0,9.0,0,0.00,,,0.00,meteohub,2012-11-23 11:48:00,
2012-11-23 06:50:00,43.9,43.9,30.13,South,180,6.0,9.0,0,0.00,,,0.00,meteohub,2012-11-23 11:50:00,
2012-11-23 06:51:00,43.9,43.9,30.13,South,180,4.0,10.0,0,0.00,,,0.00,meteohub,2012-11-23 11:51:00,
2012-11-23 06:53:00,43.9,43.9,30.13,South,180,6.0,10.0,0,0.00,,,0.00,meteohub,2012-11-23 11:53:00,
2012-11-23 06:56:00,43.9,43.9,30.13,WSW,248,7.0,10.0,0,0.00,,,0.00,meteohub,2012-11-23 11:56:00,
2012-11-23 06:58:00,44.1,44.1,30.13,WSW,248,5.0,10.0,0,0.00,,,0.00,meteohub,2012-11-23 11:58:00,
2012-11-23 07:01:00,44.1,44.1,30.13,South,180,4.0,10.0,0,0.00,,,0.00,meteohub,2012-11-23 12:01:00,
2012-11-23 07:02:00,44.1,44.1,30.12,South,180,4.0,10.0,0,0.00,,,0.00,meteohub,2012-11-23 12:02:00,
2012-11-23 07:03:00,44.1,44.1,30.13,South,180,4.0,10.0,0,0.00,,,0.00,meteohub,2012-11-23 12:03:00,
2012-11-23 07:07:00,44.1,44.1,30.13,South,180,4.0,8.0,0,0.00,,,0.00,meteohub,2012-11-23 12:07:00,
2012-11-23 07:09:00,44.2,44.2,30.13,South,180,8.0,8.0,0,0.00,,,0.00,meteohub,2012-11-23 12:09:00,
2012-11-23 07:12:00,44.2,44.2,30.13,WSW,248,5.0,8.0,0,0.00,,,0.00,meteohub,2012-11-23 12:12:00,
2012-11-23 07:13:00,44.2,44.2,30.13,South,180,4.0,8.0,0,0.00,,,0.00,meteohub,2012-11-23 12:13:00,
2012-11-23 07:14:00,44.2,44.2,30.13,WSW,248,8.0,8.0,0,0.00,,,0.00,meteohub,2012-11-23 12:14:00,
2012-11-23 07:17:00,44.2,44.2,30.12,South,180,4.0,8.0,0,0.00,,,0.00,meteohub,2012-11-23 12:17:00,
2012-11-23 07:19:00,44.2,44.2,30.13,South,180,5.0,8.0,0,0.00,,,0.00,meteohub,2012-11-23 12:19:00,
2012-11-23 07:20:00,44.2,44.2,30.13,South,180,6.0,8.0,0,0.00,,,0.00,meteohub,2012-11-23 12:20:00,
2012-11-23 07:22:00,44.2,44.2,30.12,South,180,7.0,8.0,0,0.00,,,0.00,meteohub,2012-11-23 12:22:00,
2012-11-23 07:24:00,44.4,44.4,30.12,South,180,8.0,8.0,0,0.00,,,0.00,meteohub,2012-11-23 12:24:00,
2012-11-23 07:25:00,44.4,44.4,30.12,WSW,248,8.0,8.0,0,0.00,,,0.00,meteohub,2012-11-23 12:25:00,
2012-11-23 07:28:00,44.6,44.6,30.13,WSW,248,8.0,9.0,0,0.00,,,0.00,meteohub,2012-11-23 12:28:00,
2012-11-23 07:29:00,44.6,44.6,30.12,WSW,248,5.0,9.0,0,0.00,,,0.00,meteohub,2012-11-23 12:29:00,
2012-11-23 07:30:00,44.6,44.6,30.12,SE,135,12.0,12.0,0,0.00,,,0.00,meteohub,2012-11-23 12:30:00,
2012-11-23 07:33:00,44.8,44.8,30.12,South,180,9.0,9.0,0,0.00,,,0.00,meteohub,2012-11-23 12:33:00,
2012-11-23 07:36:00,45.0,45.0,30.12,South,180,8.0,12.0,0,0.00,,,0.00,meteohub,2012-11-23 12:36:00,
2012-11-23 07:38:00,45.0,45.0,30.12,WSW,248,5.0,12.0,0,0.00,,,0.00,meteohub,2012-11-23 12:38:00,
2012-11-23 07:41:00,45.0,45.0,30.12,WSW,248,8.0,12.0,0,0.00,,,0.00,meteohub,2012-11-23 12:41:00,
2012-11-23 07:42:00,45.0,45.0,30.12,WSW,248,4.0,12.0,0,0.00,,,0.00,meteohub,2012-11-23 12:42:00,
2012-11-23 07:44:00,45.0,45.0,30.12,South,180,10.0,12.0,0,0.00,,,0.00,meteohub,2012-11-23 12:44:00,
2012-11-23 07:46:00,45.1,45.1,30.12,South,180,8.0,12.0,0,0.00,,,0.00,meteohub,2012-11-23 12:46:00,
2012-11-23 07:47:00,45.3,45.3,30.12,NW,315,15.0,15.0,0,0.00,,,0.00,meteohub,2012-11-23 12:47:00,
2012-11-23 07:49:00,45.3,45.3,30.12,WSW,248,8.0,12.0,0,0.00,,,0.00,meteohub,2012-11-23 12:49:00,
2012-11-23 07:52:00,45.5,45.5,30.12,WSW,248,8.0,15.0,0,0.00,,,0.00,meteohub,2012-11-23 12:52:00,
2012-11-23 07:53:00,45.5,45.5,30.12,WSW,248,4.0,15.0,0,0.00,,,0.00,meteohub,2012-11-23 12:53:00,
2012-11-23 07:55:00,45.5,45.5,30.12,South,180,11.0,15.0,0,0.00,,,0.00,meteohub,2012-11-23 12:55:00,
2012-11-23 07:57:00,45.5,45.5,30.12,WSW,248,12.0,15.0,0,0.00,,,0.00,meteohub,2012-11-23 12:57:00,
2012-11-23 07:58:00,45.7,45.7,30.12,WSW,248,8.0,15.0,0,0.00,,,0.00,meteohub,2012-11-23 12:58:00,
2012-11-23 08:00:00,45.7,45.7,30.12,SSE,158,10.0,15.0,0,0.00,,,0.00,meteohub,2012-11-23 13:00:00,
2012-11-23 08:02:00,45.9,-7.6,30.12,WSW,248,13.0,15.0,10,0.00,,,0.00,meteohub,2012-11-23 13:02:00,
2012-11-23 08:05:00,46.0,46.0,30.11,SE,135,10.0,15.0,0,0.00,,,0.00,meteohub,2012-11-23 13:05:00,
2012-11-23 08:06:00,46.0,46.0,30.11,South,180,8.0,13.0,0,0.00,,,0.00,meteohub,2012-11-23 13:06:00,
2012-11-23 08:07:00,46.0,-7.6,30.12,WSW,248,8.0,13.0,10,0.00,,,0.00,meteohub,2012-11-23 13:07:00,
2012-11-23 08:08:00,46.0,-7.6,30.12,East,90,8.0,13.0,10,0.00,,,0.00,meteohub,2012-11-23 13:08:00,
2012-11-23 08:10:00,46.2,-7.4,30.12,WSW,248,7.0,13.0,10,0.00,,,0.00,meteohub,2012-11-23 13:10:00,
2012-11-23 08:11:00,46.2,46.2,30.12,WSW,248,13.0,13.0,0,0.00,,,0.00,meteohub,2012-11-23 13:11:00,
2012-11-23 08:13:00,46.2,46.2,30.12,WSW,248,8.0,13.0,0,0.00,,,0.00,meteohub,2012-11-23 13:13:00,
2012-11-23 08:14:00,46.4,46.4,30.12,South,180,9.0,13.0,0,0.00,,,0.00,meteohub,2012-11-23 13:14:00,
2012-11-23 08:15:00,46.4,46.4,30.11,WSW,248,7.0,13.0,0,0.00,,,0.00,meteohub,2012-11-23 13:15:00,
2012-11-23 08:17:00,46.4,46.4,30.11,WSW,248,7.0,13.0,0,0.00,,,0.00,meteohub,2012-11-23 13:17:00,
2012-11-23 08:19:00,46.4,46.4,30.11,WSW,248,7.0,13.0,0,0.00,,,0.00,meteohub,2012-11-23 13:19:00,
2012-11-23 08:20:00,46.4,46.4,30.10,WSW,248,7.0,13.0,0,0.00,,,0.00,meteohub,2012-11-23 13:20:00,
2012-11-23 08:22:00,46.4,46.4,30.11,West,270,6.0,13.0,0,0.00,,,0.00,meteohub,2012-11-23 13:22:00,
2012-11-23 08:24:00,46.6,-7.1,30.11,West,270,9.0,13.0,10,0.00,,,0.00,meteohub,2012-11-23 13:24:00,
2012-11-23 08:25:00,46.6,46.6,30.11,WSW,248,8.0,13.0,0,0.00,,,0.00,meteohub,2012-11-23 13:25:00,
2012-11-23 08:27:00,46.8,46.8,30.11,WSW,248,7.0,13.0,0,0.00,,,0.00,meteohub,2012-11-23 13:27:00,
2012-11-23 08:29:00,46.9,46.9,30.11,WSW,248,6.0,13.0,0,0.00,,,0.00,meteohub,2012-11-23 13:29:00,
2012-11-23 08:30:00,46.9,46.9,30.11,West,270,11.0,11.0,0,0.00,,,0.00,meteohub,2012-11-23 13:30:00,
2012-11-23 08:32:00,47.1,47.1,30.11,West,270,11.0,11.0,0,0.00,,,0.00,meteohub,2012-11-23 13:32:00,
2012-11-23 08:35:00,47.5,47.5,30.11,South,180,4.0,11.0,0,0.00,,,0.00,meteohub,2012-11-23 13:35:00,
2012-11-23 08:37:00,47.7,47.7,30.11,WSW,248,13.0,13.0,0,0.00,,,0.00,meteohub,2012-11-23 13:37:00,
2012-11-23 08:40:00,48.0,48.0,30.11,South,180,8.0,13.0,0,0.00,,,0.00,meteohub,2012-11-23 13:40:00,
2012-11-23 08:41:00,48.2,48.2,30.10,WSW,248,11.0,13.0,0,0.00,,,0.00,meteohub,2012-11-23 13:41:00,
2012-11-23 08:42:00,48.2,48.2,30.11,WSW,248,11.0,13.0,0,0.00,,,0.00,meteohub,2012-11-23 13:42:00,
2012-11-23 08:46:00,48.4,48.4,30.10,South,180,8.0,13.0,0,0.00,,,0.00,meteohub,2012-11-23 13:46:00,
2012-11-23 08:48:00,48.4,48.4,30.10,WSW,248,6.0,13.0,0,0.00,,,0.00,meteohub,2012-11-23 13:48:00,
2012-11-23 08:51:00,48.4,48.4,30.10,WSW,248,11.0,13.0,0,0.00,,,0.00,meteohub,2012-11-23 13:51:00,
2012-11-23 08:52:00,48.6,48.6,30.10,WSW,248,11.0,13.0,0,0.00,,,0.00,meteohub,2012-11-23 13:52:00,
2012-11-23 08:53:00,48.4,48.4,30.10,South,180,7.0,13.0,0,0.00,,,0.00,meteohub,2012-11-23 13:53:00,
2012-11-23 08:54:00,48.4,48.4,30.10,South,180,7.0,13.0,0,0.00,,,0.00,meteohub,2012-11-23 13:54:00,
2012-11-23 08:57:00,48.6,48.6,30.10,WSW,248,8.0,11.0,0,0.00,,,0.00,meteohub,2012-11-23 13:57:00,
2012-11-23 08:58:00,48.7,48.7,30.09,South,180,7.0,11.0,0,0.00,,,0.00,meteohub,2012-11-23 13:58:00,
2012-11-23 08:59:00,48.7,48.7,30.09,WSW,248,8.0,11.0,0,0.00,,,0.00,meteohub,2012-11-23 13:59:00,
2012-11-23 09:03:00,48.9,48.9,30.09,WSW,248,8.0,11.0,0,0.00,,,0.00,meteohub,2012-11-23 14:03:00,
2012-11-23 09:04:00,48.9,48.9,30.09,WSW,248,8.0,11.0,0,0.00,,,0.00,meteohub,2012-11-23 14:04:00,
2012-11-23 09:08:00,50.0,50.0,30.09,WSW,248,12.0,12.0,0,0.00,,,0.00,meteohub,2012-11-23 14:08:00,
2012-11-23 09:09:00,50.0,50.0,30.09,WSW,248,7.0,11.0,0,0.00,,,0.00,meteohub,2012-11-23 14:09:00,
2012-11-23 09:10:00,49.8,49.8,30.09,WSW,248,6.0,8.0,0,0.00,,,0.00,meteohub,2012-11-23 14:10:00,
2012-11-23 09:14:00,49.6,49.6,30.09,WSW,248,6.0,8.0,0,0.00,,,0.00,meteohub,2012-11-23 14:14:00,
2012-11-23 09:15:00,49.6,49.6,30.09,WSW,248,13.0,13.0,0,0.00,,,0.00,meteohub,2012-11-23 14:15:00,
2012-11-23 09:17:00,49.6,49.6,30.09,WSW,248,11.0,12.0,0,0.00,,,0.00,meteohub,2012-11-23 14:17:00,
2012-11-23 09:19:00,49.5,49.5,30.09,South,180,6.0,12.0,0,0.00,,,0.00,meteohub,2012-11-23 14:19:00,
2012-11-23 09:20:00,49.6,49.6,30.09,WSW,248,8.0,13.0,0,0.00,,,0.00,meteohub,2012-11-23 14:20:00,
2012-11-23 09:22:00,49.6,49.6,30.09,South,180,4.0,13.0,0,0.00,,,0.00,meteohub,2012-11-23 14:22:00,
2012-11-23 09:23:00,49.8,49.8,30.09,WSW,248,5.0,13.0,0,0.00,,,0.00,meteohub,2012-11-23 14:23:00,
2012-11-23 09:25:00,49.6,49.6,30.09,WSW,248,8.0,13.0,0,0.00,,,0.00,meteohub,2012-11-23 14:25:00,
2012-11-23 09:27:00,49.8,49.8,30.09,WSW,248,8.0,13.0,0,0.00,,,0.00,meteohub,2012-11-23 14:27:00,
2012-11-23 09:30:00,49.8,49.8,30.09,NW,315,7.0,13.0,0,0.00,,,0.00,meteohub,2012-11-23 14:30:00,
2012-11-23 09:31:00,49.8,49.8,30.09,WSW,248,4.0,13.0,0,0.00,,,0.00,meteohub,2012-11-23 14:31:00,
2012-11-23 09:33:00,49.8,49.8,30.09,South,180,7.0,13.0,0,0.00,,,0.00,meteohub,2012-11-23 14:33:00,
2012-11-23 09:35:00,49.8,49.8,30.09,South,180,2.0,13.0,0,0.00,,,0.00,meteohub,2012-11-23 14:35:00,
2012-11-23 09:36:00,49.8,49.8,30.09,East,90,4.0,10.0,0,0.00,,,0.00,meteohub,2012-11-23 14:36:00,
2012-11-23 09:37:00,49.8,49.8,30.09,WSW,248,3.0,10.0,0,0.00,,,0.00,meteohub,2012-11-23 14:37:00,
2012-11-23 09:38:00,49.8,49.8,30.08,South,180,5.0,10.0,0,0.00,,,0.00,meteohub,2012-11-23 14:38:00,
2012-11-23 09:41:00,50.0,50.0,30.09,South,180,3.0,10.0,0,0.00,,,0.00,meteohub,2012-11-23 14:41:00,
2012-11-23 09:42:00,50.0,50.0,30.08,South,180,4.0,10.0,0,0.00,,,0.00,meteohub,2012-11-23 14:42:00,
2012-11-23 09:43:00,50.2,50.2,30.09,South,180,4.0,10.0,0,0.00,,,0.00,meteohub,2012-11-23 14:43:00,
2012-11-23 09:45:00,50.2,50.2,30.08,SE,135,5.0,10.0,0,0.00,,,0.00,meteohub,2012-11-23 14:45:00,
2012-11-23 09:46:00,50.2,50.2,30.08,South,180,4.0,7.0,0,0.00,,,0.00,meteohub,2012-11-23 14:46:00,
2012-11-23 09:47:00,50.2,50.2,30.08,South,180,4.0,7.0,0,0.00,,,0.00,meteohub,2012-11-23 14:47:00,
2012-11-23 09:48:00,50.2,50.2,30.08,WSW,248,4.0,7.0,0,0.00,,,0.00,meteohub,2012-11-23 14:48:00,
2012-11-23 09:50:00,50.4,50.4,30.09,West,270,5.0,7.0,0,0.00,,,0.00,meteohub,2012-11-23 14:50:00,
2012-11-23 09:52:00,50.2,50.2,30.09,South,180,6.0,7.0,0,0.00,,,0.00,meteohub,2012-11-23 14:52:00,
2012-11-23 09:53:00,50.2,50.2,30.09,South,180,6.0,7.0,0,0.00,,,0.00,meteohub,2012-11-23 14:53:00,
2012-11-23 09:54:00,50.2,50.2,30.08,West,270,4.0,7.0,0,0.00,,,0.00,meteohub,2012-11-23 14:54:00,
2012-11-23 09:55:00,50.2,50.2,30.08,WSW,248,5.0,8.0,0,0.00,,,0.00,meteohub,2012-11-23 14:55:00,
2012-11-23 09:58:00,50.2,50.2,30.08,WSW,248,3.0,8.0,0,0.00,,,0.00,meteohub,2012-11-23 14:58:00,
2012-11-23 10:00:00,50.2,50.2,30.09,WSW,248,4.0,8.0,0,0.00,,,0.00,meteohub,2012-11-23 15:00:00,
2012-11-23 10:01:00,50.2,50.2,30.09,WSW,248,4.0,8.0,0,0.00,,,0.00,meteohub,2012-11-23 15:01:00,
2012-11-23 10:03:00,50.2,50.2,30.08,WSW,248,4.0,8.0,0,0.00,,,0.00,meteohub,2012-11-23 15:03:00,
2012-11-23 10:05:00,50.2,50.2,30.08,WSW,248,4.0,8.0,0,0.00,,,0.00,meteohub,2012-11-23 15:05:00,
2012-11-23 10:06:00,50.2,50.2,30.08,WSW,248,4.0,8.0,0,0.00,,,0.00,meteohub,2012-11-23 15:06:00,
2012-11-23 10:08:00,50.9,-3.8,30.08,South,180,4.0,8.0,10,0.00,,,0.00,meteohub,2012-11-23 15:08:00,
2012-11-23 10:11:00,51.1,-3.6,30.08,NW,315,9.0,9.0,10,0.00,,,0.00,meteohub,2012-11-23 15:11:00,
2012-11-23 10:13:00,51.1,-3.6,30.08,WSW,248,4.0,7.0,10,0.00,,,0.00,meteohub,2012-11-23 15:13:00,
2012-11-23 10:14:00,51.1,-3.6,30.08,WSW,248,6.0,7.0,10,0.00,,,0.00,meteohub,2012-11-23 15:14:00,
2012-11-23 10:16:00,51.1,-3.6,30.08,WSW,248,11.0,11.0,10,0.00,,,0.00,meteohub,2012-11-23 15:16:00,
2012-11-23 10:18:00,51.1,-1.7,30.08,WSW,248,7.0,9.0,11,0.00,,,0.00,meteohub,2012-11-23 15:18:00,
2012-11-23 10:19:00,51.3,-1.5,30.08,NW,315,14.0,14.0,11,0.00,,,0.00,meteohub,2012-11-23 15:19:00,
2012-11-23 10:20:00,51.3,-1.5,30.08,WSW,248,9.0,9.0,11,0.00,,,0.00,meteohub,2012-11-23 15:20:00,
2012-11-23 10:21:00,51.1,0.1,30.08,WSW,248,5.0,11.0,12,0.00,,,0.00,meteohub,2012-11-23 15:21:00,
2012-11-23 10:24:00,51.1,0.1,30.08,NW,315,4.0,11.0,12,0.00,,,0.00,meteohub,2012-11-23 15:24:00,
2012-11-23 10:25:00,51.1,0.1,30.08,WSW,248,3.0,11.0,12,0.00,,,0.00,meteohub,2012-11-23 15:25:00,
2012-11-23 10:28:00,50.9,3.4,30.08,WSW,248,7.0,14.0,14,0.00,,,0.00,meteohub,2012-11-23 15:28:00,
2012-11-23 10:29:00,51.1,3.6,30.08,South,180,13.0,14.0,14,0.00,,,0.00,meteohub,2012-11-23 15:29:00,
2012-11-23 10:30:00,50.9,4.8,30.08,WSW,248,11.0,14.0,15,0.00,,,0.00,meteohub,2012-11-23 15:30:00,
2012-11-23 10:31:00,50.9,4.8,30.07,WSW,248,8.0,14.0,15,0.00,,,0.00,meteohub,2012-11-23 15:31:00,
2012-11-23 10:34:00,50.7,8.8,30.08,South,180,17.0,17.0,18,0.00,,,0.00,meteohub,2012-11-23 15:34:00,
2012-11-23 10:35:00,50.5,12.0,30.08,WSW,248,9.0,14.0,21,0.00,,,0.00,meteohub,2012-11-23 15:35:00,
2012-11-23 10:36:00,50.5,12.0,30.08,WSW,248,7.0,14.0,21,0.00,,,0.00,meteohub,2012-11-23 15:36:00,
2012-11-23 10:39:00,50.0,15.6,30.09,West,270,12.0,14.0,25,0.00,,,0.00,meteohub,2012-11-23 15:39:00,
2012-11-23 10:41:00,49.6,16.2,30.09,WSW,248,11.0,17.0,26,0.00,,,0.00,meteohub,2012-11-23 15:41:00,
2012-11-23 10:44:00,49.3,17.6,30.08,WSW,248,9.0,17.0,28,0.00,,,0.00,meteohub,2012-11-23 15:44:00,
2012-11-23 10:46:00,49.1,18.1,30.08,WSW,248,8.0,17.0,29,0.00,,,0.00,meteohub,2012-11-23 15:46:00,
2012-11-23 10:47:00,48.9,18.0,30.09,West,270,8.0,17.0,29,0.00,,,0.00,meteohub,2012-11-23 15:47:00,
2012-11-23 10:49:00,48.9,18.0,30.08,West,270,9.0,17.0,29,0.00,,,0.00,meteohub,2012-11-23 15:49:00,
2012-11-23 10:51:00,48.9,18.0,30.08,WSW,248,6.0,17.0,29,0.00,,,0.00,meteohub,2012-11-23 15:51:00,
2012-11-23 10:52:00,48.9,18.0,30.08,WSW,248,11.0,17.0,29,0.00,,,0.00,meteohub,2012-11-23 15:52:00,
2012-11-23 10:55:00,48.9,18.9,30.08,NW,315,8.0,13.0,30,0.00,,,0.00,meteohub,2012-11-23 15:55:00,
2012-11-23 10:57:00,48.7,18.7,30.08,WSW,248,11.0,13.0,30,0.00,,,0.00,meteohub,2012-11-23 15:57:00,
2012-11-23 11:01:00,48.7,18.7,30.07,North,0,12.0,13.0,30,0.00,,,0.00,meteohub,2012-11-23 16:01:00,
2012-11-23 11:02:00,48.7,18.7,30.07,North,0,12.0,13.0,30,0.00,,,0.00,meteohub,2012-11-23 16:02:00,
2012-11-23 11:03:00,48.7,18.7,30.07,North,0,12.0,13.0,30,0.00,,,0.00,meteohub,2012-11-23 16:03:00,
2012-11-23 11:07:00,48.7,18.7,30.06,North,0,12.0,13.0,30,0.00,,,0.00,meteohub,2012-11-23 16:07:00,
2012-11-23 11:08:00,48.4,20.7,30.07,WSW,248,5.0,13.0,33,0.00,,,0.00,meteohub,2012-11-23 16:08:00,
2012-11-23 11:13:00,48.2,21.2,30.07,West,270,6.0,12.0,34,0.00,,,0.00,meteohub,2012-11-23 16:13:00,
2012-11-23 11:14:00,48.2,21.7,30.07,WSW,248,6.0,12.0,35,0.00,,,0.00,meteohub,2012-11-23 16:14:00,
2012-11-23 11:18:00,48.0,22.3,30.07,WSW,248,8.0,12.0,36,0.00,,,0.00,meteohub,2012-11-23 16:18:00,
2012-11-23 11:19:00,48.0,23.0,30.07,WSW,248,4.0,12.0,37,0.00,,,0.00,meteohub,2012-11-23 16:19:00,
2012-11-23 11:20:00,47.8,23.5,30.07,WSW,248,6.0,12.0,38,0.01,,,0.01,meteohub,2012-11-23 16:20:00,
2012-11-23 11:24:00,47.5,24.4,30.06,WSW,248,6.0,12.0,40,0.01,,,0.01,meteohub,2012-11-23 16:24:00,
2012-11-23 11:25:00,47.5,25.0,30.06,WSW,248,5.0,9.0,41,0.01,,,0.01,meteohub,2012-11-23 16:25:00,
2012-11-23 11:30:00,46.9,26.2,30.06,NW,315,4.0,9.0,44,0.01,,,0.02,meteohub,2012-11-23 16:30:00,
2012-11-23 11:31:00,46.9,26.8,30.06,WSW,248,4.0,9.0,45,0.02,,,0.02,meteohub,2012-11-23 16:31:00,
2012-11-23 11:32:00,46.9,26.8,30.06,West,270,8.0,9.0,45,0.02,,,0.02,meteohub,2012-11-23 16:32:00,
2012-11-23 11:35:00,46.8,27.7,30.06,WSW,248,8.0,9.0,47,0.02,,,0.02,meteohub,2012-11-23 16:35:00,
2012-11-23 11:36:00,46.8,27.7,30.06,WSW,248,8.0,9.0,47,0.02,,,0.02,meteohub,2012-11-23 16:36:00,
2012-11-23 11:37:00,46.8,27.7,30.06,WSW,248,5.0,9.0,47,0.02,,,0.02,meteohub,2012-11-23 16:37:00,
2012-11-23 11:41:00,46.6,27.9,30.06,WSW,248,7.0,10.0,48,0.02,,,0.02,meteohub,2012-11-23 16:41:00,
2012-11-23 11:42:00,46.6,28.4,30.05,WSW,248,7.0,10.0,49,0.02,,,0.02,meteohub,2012-11-23 16:42:00,
2012-11-23 11:43:00,46.6,28.4,30.05,South,180,8.0,10.0,49,0.02,,,0.02,meteohub,2012-11-23 16:43:00,
2012-11-23 11:46:00,46.4,28.8,30.05,South,180,11.0,11.0,50,0.05,,,0.05,meteohub,2012-11-23 16:46:00,
2012-11-23 11:47:00,46.4,28.8,30.05,South,180,8.0,10.0,50,0.05,,,0.05,meteohub,2012-11-23 16:47:00,
2012-11-23 11:48:00,46.4,28.8,30.05,South,180,8.0,10.0,50,0.05,,,0.05,meteohub,2012-11-23 16:48:00,
2012-11-23 11:51:00,46.4,29.7,30.04,WSW,248,10.0,14.0,52,0.05,,,0.05,meteohub,2012-11-23 16:51:00,
2012-11-23 11:52:00,46.4,29.7,30.04,South,180,8.0,14.0,52,0.05,,,0.05,meteohub,2012-11-23 16:52:00,
2012-11-23 11:53:00,46.4,29.7,30.04,SSE,158,4.0,14.0,52,0.05,,,0.05,meteohub,2012-11-23 16:53:00,
2012-11-23 11:57:00,46.2,30.6,30.04,WSW,248,5.0,14.0,54,0.05,,,0.05,meteohub,2012-11-23 16:57:00,
2012-11-23 11:59:00,46.0,30.7,30.04,WSW,248,8.0,14.0,55,0.05,,,0.05,meteohub,2012-11-23 16:59:00,
2012-11-23 12:02:00,46.0,31.3,30.04,West,270,8.0,14.0,56,0.05,,,0.05,meteohub,2012-11-23 17:02:00,
2012-11-23 12:03:00,45.9,31.1,30.05,WSW,248,9.0,14.0,56,0.05,,,0.05,meteohub,2012-11-23 17:03:00,
2012-11-23 12:04:00,45.9,31.5,30.05,WSW,248,9.0,14.0,57,0.05,,,0.05,meteohub,2012-11-23 17:04:00,
2012-11-23 12:07:00,45.9,32.0,30.04,WSW,248,12.0,12.0,58,0.07,,,0.07,meteohub,2012-11-23 17:07:00,
2012-11-23 12:09:00,45.9,32.0,30.04,WSW,248,10.0,12.0,58,0.07,,,0.07,meteohub,2012-11-23 17:09:00,
2012-11-23 12:10:00,45.9,32.0,30.04,South,180,11.0,12.0,58,0.07,,,0.07,meteohub,2012-11-23 17:10:00,
2012-11-23 12:14:00,45.7,32.2,30.04,WSW,248,3.0,12.0,59,0.07,,,0.07,meteohub,2012-11-23 17:14:00,
2012-11-23 12:15:00,45.7,32.2,30.04,WSW,248,10.0,12.0,59,0.07,,,0.07,meteohub,2012-11-23 17:15:00,
2012-11-23 12:19:00,45.5,32.4,30.04,WSW,248,8.0,12.0,60,0.06,,,0.07,meteohub,2012-11-23 17:19:00,
2012-11-23 12:21:00,45.5,32.9,30.04,SE,135,8.0,12.0,61,0.06,,,0.07,meteohub,2012-11-23 17:21:00,
2012-11-23 12:24:00,45.5,33.3,30.04,South,180,7.0,12.0,62,0.06,,,0.07,meteohub,2012-11-23 17:24:00,
2012-11-23 12:25:00,45.5,33.3,30.04,West,270,8.0,12.0,62,0.06,,,0.07,meteohub,2012-11-23 17:25:00,
2012-11-23 12:27:00,45.3,33.1,30.04,West,270,12.0,12.0,62,0.05,,,0.07,meteohub,2012-11-23 17:27:00,
2012-11-23 12:29:00,45.3,33.4,30.04,WSW,248,8.0,10.0,63,0.05,,,0.07,meteohub,2012-11-23 17:29:00,
2012-11-23 12:30:00,45.3,33.4,30.04,WSW,248,8.0,10.0,63,0.05,,,0.07,meteohub,2012-11-23 17:30:00,
2012-11-23 12:32:00,45.3,33.4,30.04,WSW,248,8.0,13.0,63,0.05,,,0.07,meteohub,2012-11-23 17:32:00,
2012-11-23 12:33:00,45.3,33.4,30.04,WSW,248,8.0,13.0,63,0.05,,,0.07,meteohub,2012-11-23 17:33:00,
2012-11-23 12:35:00,45.3,33.8,30.04,WSW,248,6.0,13.0,64,0.05,,,0.07,meteohub,2012-11-23 17:35:00,
2012-11-23 12:37:00,45.3,33.8,30.03,South,180,11.0,13.0,64,0.05,,,0.07,meteohub,2012-11-23 17:37:00,
2012-11-23 12:38:00,45.3,33.8,30.04,WSW,248,6.0,13.0,64,0.05,,,0.07,meteohub,2012-11-23 17:38:00,
2012-11-23 12:40:00,45.3,34.3,30.04,WSW,248,5.0,13.0,65,0.05,,,0.07,meteohub,2012-11-23 17:40:00,
2012-11-23 12:42:00,45.3,34.3,30.03,South,180,6.0,13.0,65,0.05,,,0.07,meteohub,2012-11-23 17:42:00,
2012-11-23 12:43:00,45.3,34.3,30.03,South,180,6.0,13.0,65,0.05,,,0.07,meteohub,2012-11-23 17:43:00,
2012-11-23 12:45:00,45.3,34.7,30.03,West,270,12.0,12.0,66,0.02,,,0.07,meteohub,2012-11-23 17:45:00,
2012-11-23 12:46:00,45.3,34.7,30.03,West,270,12.0,12.0,66,0.02,,,0.07,meteohub,2012-11-23 17:46:00,
2012-11-23 12:47:00,45.1,34.5,30.03,WSW,248,7.0,11.0,66,0.02,,,0.07,meteohub,2012-11-23 17:47:00,
2012-11-23 12:48:00,45.1,34.5,30.03,WSW,248,8.0,11.0,66,0.02,,,0.07,meteohub,2012-11-23 17:48:00,
2012-11-23 12:51:00,45.1,34.9,30.04,WSW,248,9.0,12.0,67,0.05,,,0.09,meteohub,2012-11-23 17:51:00,
2012-11-23 12:53:00,45.1,34.9,30.03,WSW,248,8.0,12.0,67,0.05,,,0.09,meteohub,2012-11-23 17:53:00,
2012-11-23 12:54:00,45.1,34.9,30.03,WSW,248,8.0,12.0,67,0.05,,,0.09,meteohub,2012-11-23 17:54:00,
2012-11-23 12:56:00,45.0,35.1,30.02,WSW,248,4.0,12.0,68,0.05,,,0.09,meteohub,2012-11-23 17:56:00,
2012-11-23 12:57:00,45.0,35.1,30.02,WSW,248,4.0,12.0,68,0.05,,,0.09,meteohub,2012-11-23 17:57:00,
2012-11-23 12:58:00,45.0,35.1,30.02,WSW,248,8.0,12.0,68,0.05,,,0.09,meteohub,2012-11-23 17:58:00,
2012-11-23 12:59:00,45.0,35.1,30.02,WSW,248,7.0,12.0,68,0.05,,,0.09,meteohub,2012-11-23 17:59:00,
2012-11-23 13:02:00,45.0,35.1,30.02,WSW,248,7.0,12.0,68,0.02,,,0.09,meteohub,2012-11-23 18:02:00,
2012-11-23 13:04:00,45.0,35.4,30.02,South,180,7.0,12.0,69,0.02,,,0.09,meteohub,2012-11-23 18:04:00,
2012-11-23 13:05:00,45.0,35.4,30.02,South,180,8.0,12.0,69,0.02,,,0.09,meteohub,2012-11-23 18:05:00,
2012-11-23 13:08:00,44.8,35.6,30.01,West,270,8.0,9.0,70,0.02,,,0.09,meteohub,2012-11-23 18:08:00,
2012-11-23 13:09:00,44.8,35.6,30.01,South,180,6.0,9.0,70,0.02,,,0.09,meteohub,2012-11-23 18:09:00,
2012-11-23 13:10:00,44.8,35.6,30.01,NW,315,5.0,9.0,70,0.02,,,0.09,meteohub,2012-11-23 18:10:00,
2012-11-23 13:13:00,44.8,36.0,30.02,WSW,248,12.0,12.0,71,0.02,,,0.09,meteohub,2012-11-23 18:13:00,
2012-11-23 13:15:00,44.8,36.0,30.02,WSW,248,4.0,10.0,71,0.02,,,0.09,meteohub,2012-11-23 18:15:00,
2012-11-23 13:18:00,44.8,36.3,30.02,WSW,248,6.0,12.0,72,0.02,,,0.09,meteohub,2012-11-23 18:18:00,
2012-11-23 13:20:00,44.8,36.3,30.01,South,180,6.0,12.0,72,0.02,,,0.09,meteohub,2012-11-23 18:20:00,
2012-11-23 13:21:00,44.8,36.3,30.01,South,180,6.0,12.0,72,0.02,,,0.09,meteohub,2012-11-23 18:21:00,
2012-11-23 13:23:00,44.8,36.3,30.01,WSW,248,3.0,12.0,72,0.02,,,0.09,meteohub,2012-11-23 18:23:00,
2012-11-23 13:26:00,44.8,36.7,30.01,West,270,8.0,12.0,73,0.02,,,0.09,meteohub,2012-11-23 18:26:00,
2012-11-23 13:28:00,44.8,36.7,30.01,West,270,5.0,12.0,73,0.02,,,0.09,meteohub,2012-11-23 18:28:00,
2012-11-23 13:29:00,44.8,36.7,30.01,West,270,5.0,12.0,73,0.02,,,0.09,meteohub,2012-11-23 18:29:00,
2012-11-23 13:31:00,44.8,36.7,30.02,WSW,248,5.0,8.0,73,0.02,,,0.09,meteohub,2012-11-23 18:31:00,
2012-11-23 13:33:00,44.8,36.7,30.01,South,180,8.0,8.0,73,0.02,,,0.09,meteohub,2012-11-23 18:33:00,
2012-11-23 13:34:00,44.8,37.0,30.01,WSW,248,7.0,8.0,74,0.02,,,0.09,meteohub,2012-11-23 18:34:00,
2012-11-23 13:37:00,44.8,37.0,30.01,West,270,10.0,10.0,74,0.02,,,0.09,meteohub,2012-11-23 18:37:00,
2012-11-23 13:38:00,44.8,37.0,30.01,WSW,248,7.0,8.0,74,0.02,,,0.09,meteohub,2012-11-23 18:38:00,
2012-11-23 13:39:00,44.8,37.0,30.01,WSW,248,8.0,8.0,74,0.02,,,0.09,meteohub,2012-11-23 18:39:00,
2012-11-23 13:42:00,44.8,37.4,30.01,WSW,248,6.0,10.0,75,0.05,,,0.12,meteohub,2012-11-23 18:42:00,
2012-11-23 13:43:00,44.8,37.4,30.01,WNW,293,5.0,10.0,75,0.05,,,0.12,meteohub,2012-11-23 18:43:00,
2012-11-23 13:45:00,44.8,37.4,30.01,West,270,6.0,10.0,75,0.05,,,0.12,meteohub,2012-11-23 18:45:00,
2012-11-23 13:48:00,44.8,37.4,30.01,WSW,248,8.0,10.0,75,0.05,,,0.12,meteohub,2012-11-23 18:48:00,
2012-11-23 13:50:00,44.8,37.4,30.01,South,180,7.0,10.0,75,0.05,,,0.12,meteohub,2012-11-23 18:50:00,
2012-11-23 13:51:00,45.0,37.9,30.01,WSW,248,5.0,10.0,76,0.02,,,0.12,meteohub,2012-11-23 18:51:00,
2012-11-23 13:53:00,45.0,37.9,30.01,NW,315,5.0,10.0,76,0.02,,,0.12,meteohub,2012-11-23 18:53:00,
2012-11-23 13:55:00,45.0,37.9,30.01,WSW,248,4.0,11.0,76,0.02,,,0.12,meteohub,2012-11-23 18:55:00,
2012-11-23 13:56:00,45.0,37.9,30.01,South,180,7.0,11.0,76,0.02,,,0.12,meteohub,2012-11-23 18:56:00,
2012-11-23 13:59:00,45.0,37.9,30.01,WSW,248,8.0,11.0,76,0.02,,,0.12,meteohub,2012-11-23 18:59:00,
2012-11-23 14:00:00,45.0,38.1,30.01,South,180,4.0,11.0,77,0.02,,,0.12,meteohub,2012-11-23 19:00:00,
2012-11-23 14:02:00,45.0,38.1,30.01,NW,315,3.0,11.0,77,0.02,,,0.12,meteohub,2012-11-23 19:02:00,
2012-11-23 14:03:00,45.0,38.1,30.01,WSW,248,4.0,11.0,77,0.02,,,0.12,meteohub,2012-11-23 19:03:00,
2012-11-23 14:04:00,45.0,38.1,30.01,WSW,248,8.0,11.0,77,0.02,,,0.12,meteohub,2012-11-23 19:04:00,
2012-11-23 14:05:00,45.0,38.1,30.01,South,180,8.0,8.0,77,0.02,,,0.12,meteohub,2012-11-23 19:05:00,
2012-11-23 14:07:00,45.0,38.1,30.01,WSW,248,5.0,8.0,77,0.02,,,0.12,meteohub,2012-11-23 19:07:00,
2012-11-23 14:08:00,45.0,38.1,30.01,South,180,8.0,8.0,77,0.02,,,0.12,meteohub,2012-11-23 19:08:00,
2012-11-23 14:11:00,45.0,38.5,30.01,West,270,5.0,8.0,78,0.05,,,0.14,meteohub,2012-11-23 19:11:00,
2012-11-23 14:12:00,45.0,38.5,30.01,WSW,248,10.0,10.0,78,0.05,,,0.14,meteohub,2012-11-23 19:12:00,
2012-11-23 14:13:00,45.0,38.5,30.01,WSW,248,9.0,9.0,78,0.05,,,0.14,meteohub,2012-11-23 19:13:00,
2012-11-23 14:17:00,45.0,38.5,30.01,WSW,248,8.0,10.0,78,0.05,,,0.14,meteohub,2012-11-23 19:17:00,
2012-11-23 14:18:00,45.0,38.5,30.01,West,270,4.0,10.0,78,0.05,,,0.14,meteohub,2012-11-23 19:18:00,
2012-11-23 14:19:00,45.0,38.5,30.01,West,270,4.0,10.0,78,0.05,,,0.14,meteohub,2012-11-23 19:19:00,
2012-11-23 14:20:00,45.0,38.5,30.01,WSW,248,8.0,10.0,78,0.05,,,0.14,meteohub,2012-11-23 19:20:00,
2012-11-23 14:22:00,45.0,38.5,30.01,West,270,18.0,18.0,78,0.07,,,0.17,meteohub,2012-11-23 19:22:00,
2012-11-23 14:23:00,45.0,38.8,30.01,West,270,9.0,11.0,79,0.07,,,0.17,meteohub,2012-11-23 19:23:00,
2012-11-23 14:24:00,45.0,38.8,30.01,West,270,9.0,11.0,79,0.07,,,0.17,meteohub,2012-11-23 19:24:00,
2012-11-23 14:26:00,45.0,38.8,30.02,South,180,8.0,18.0,79,0.07,,,0.17,meteohub,2012-11-23 19:26:00,
2012-11-23 14:27:00,45.0,38.8,30.01,South,180,8.0,18.0,79,0.07,,,0.17,meteohub,2012-11-23 19:27:00,
2012-11-23 14:29:00,45.1,39.0,30.01,NW,315,7.0,18.0,79,0.07,,,0.17,meteohub,2012-11-23 19:29:00,
2012-11-23 14:31:00,45.1,39.0,30.01,WSW,248,11.0,18.0,79,0.07,,,0.17,meteohub,2012-11-23 19:31:00,
2012-11-23 14:33:00,45.1,39.0,30.01,WSW,248,11.0,18.0,79,0.07,,,0.17,meteohub,2012-11-23 19:33:00,
2012-11-23 14:34:00,45.0,38.8,30.01,South,180,12.0,18.0,79,0.07,,,0.17,meteohub,2012-11-23 19:34:00,
2012-11-23 14:35:00,44.8,38.7,30.01,NW,315,11.0,18.0,79,0.07,,,0.19,meteohub,2012-11-23 19:35:00,
2012-11-23 14:37:00,44.8,38.7,30.01,WSW,248,10.0,18.0,79,0.09,,,0.19,meteohub,2012-11-23 19:37:00,
2012-11-23 14:38:00,44.8,38.7,30.01,WSW,248,6.0,18.0,79,0.09,,,0.19,meteohub,2012-11-23 19:38:00,
2012-11-23 14:39:00,44.6,38.5,30.01,West,270,8.0,18.0,79,0.09,,,0.19,meteohub,2012-11-23 19:39:00,
2012-11-23 14:40:00,44.6,38.5,30.01,South,180,6.0,18.0,79,0.09,,,0.19,meteohub,2012-11-23 19:40:00,
2012-11-23 14:42:00,44.6,38.1,30.01,SE,135,5.0,12.0,78,0.07,,,0.19,meteohub,2012-11-23 19:42:00,
2012-11-23 14:43:00,44.6,38.1,30.01,West,270,2.0,12.0,78,0.07,,,0.19,meteohub,2012-11-23 19:43:00,
2012-11-23 14:44:00,44.6,38.1,30.01,WSW,248,7.0,12.0,78,0.07,,,0.19,meteohub,2012-11-23 19:44:00,
2012-11-23 14:46:00,44.6,37.8,30.01,West,270,8.0,12.0,77,0.07,,,0.19,meteohub,2012-11-23 19:46:00,
2012-11-23 14:47:00,44.6,37.8,30.01,West,270,13.0,13.0,77,0.07,,,0.19,meteohub,2012-11-23 19:47:00,
2012-11-23 14:48:00,44.6,37.6,30.01,South,180,6.0,12.0,76,0.07,,,0.19,meteohub,2012-11-23 19:48:00,
2012-11-23 14:50:00,44.6,37.2,30.01,WSW,248,8.0,13.0,75,0.07,,,0.19,meteohub,2012-11-23 19:50:00,
2012-11-23 14:51:00,44.6,37.2,30.01,South,180,5.0,13.0,75,0.07,,,0.19,meteohub,2012-11-23 19:51:00,
2012-11-23 14:53:00,44.6,36.5,30.00,West,270,6.0,13.0,73,0.07,,,0.19,meteohub,2012-11-23 19:53:00,
2012-11-23 14:55:00,44.6,36.1,30.01,WSW,248,15.0,15.0,72,0.07,,,0.19,meteohub,2012-11-23 19:55:00,
2012-11-23 14:56:00,44.8,36.0,30.01,West,270,5.0,15.0,71,0.07,,,0.19,meteohub,2012-11-23 19:56:00,
2012-11-23 15:00:00,44.8,35.6,30.01,WSW,248,4.0,15.0,70,0.07,,,0.19,meteohub,2012-11-23 20:00:00,
2012-11-23 15:01:00,44.8,35.6,30.01,WSW,248,8.0,15.0,70,0.07,,,0.19,meteohub,2012-11-23 20:01:00,
2012-11-23 15:03:00,44.8,35.6,30.01,WSW,248,8.0,15.0,70,0.07,,,0.19,meteohub,2012-11-23 20:03:00,
2012-11-23 15:05:00,44.8,35.2,30.01,West,270,8.0,15.0,69,0.07,,,0.19,meteohub,2012-11-23 20:05:00,
2012-11-23 15:06:00,44.8,35.2,30.01,WSW,248,6.0,16.0,69,0.05,,,0.19,meteohub,2012-11-23 20:06:00,
2012-11-23 15:07:00,44.8,35.2,30.01,South,180,11.0,16.0,69,0.05,,,0.19,meteohub,2012-11-23 20:07:00,
2012-11-23 15:08:00,44.8,34.9,30.01,WSW,248,5.0,16.0,68,0.05,,,0.19,meteohub,2012-11-23 20:08:00,
2012-11-23 15:10:00,44.8,34.9,30.01,SW,225,14.0,16.0,68,0.05,,,0.19,meteohub,2012-11-23 20:10:00,
2012-11-23 15:12:00,44.8,34.9,30.01,West,270,5.0,16.0,68,0.05,,,0.19,meteohub,2012-11-23 20:12:00,
2012-11-23 15:13:00,44.8,34.5,30.01,WSW,248,10.0,16.0,67,0.05,,,0.19,meteohub,2012-11-23 20:13:00,
2012-11-23 15:16:00,44.8,34.5,30.01,WSW,248,6.0,16.0,67,0.02,,,0.19,meteohub,2012-11-23 20:16:00,
2012-11-23 15:18:00,44.8,34.5,30.01,SSW,203,5.0,16.0,67,0.02,,,0.19,meteohub,2012-11-23 20:18:00,
2012-11-23 15:19:00,44.8,34.5,30.01,SE,135,9.0,16.0,67,0.02,,,0.19,meteohub,2012-11-23 20:19:00,
2012-11-23 15:21:00,44.8,34.5,30.01,WSW,248,11.0,16.0,67,0.02,,,0.19,meteohub,2012-11-23 20:21:00,
2012-11-23 15:23:00,44.8,34.2,30.01,West,270,9.0,16.0,66,0.02,,,0.19,meteohub,2012-11-23 20:23:00,
2012-11-23 15:24:00,44.8,34.2,30.01,West,270,8.0,16.0,66,0.02,,,0.19,meteohub,2012-11-23 20:24:00,
2012-11-23 15:25:00,44.8,34.2,30.01,West,270,8.0,16.0,66,0.02,,,0.19,meteohub,2012-11-23 20:25:00,
2012-11-23 15:26:00,44.8,34.2,30.01,WSW,248,6.0,14.0,66,0.02,,,0.19,meteohub,2012-11-23 20:26:00,
2012-11-23 15:29:00,44.8,34.2,30.01,West,270,10.0,14.0,66,0.02,,,0.19,meteohub,2012-11-23 20:29:00,
2012-11-23 15:30:00,44.8,34.2,30.01,WSW,248,8.0,14.0,66,0.02,,,0.19,meteohub,2012-11-23 20:30:00,
2012-11-23 15:32:00,44.8,33.8,30.01,WSW,248,14.0,14.0,65,0.00,,,0.19,meteohub,2012-11-23 20:32:00,
2012-11-23 15:34:00,44.8,33.8,30.01,WSW,248,8.0,14.0,65,0.00,,,0.19,meteohub,2012-11-23 20:34:00,
2012-11-23 15:35:00,44.8,33.3,30.01,SE,135,13.0,14.0,64,0.00,,,0.19,meteohub,2012-11-23 20:35:00,
2012-11-23 15:36:00,44.8,33.3,30.01,WSW,248,6.0,14.0,64,0.00,,,0.19,meteohub,2012-11-23 20:36:00,
2012-11-23 15:37:00,44.8,33.3,30.01,WSW,248,5.0,14.0,64,0.00,,,0.19,meteohub,2012-11-23 20:37:00,
2012-11-23 15:40:00,44.6,33.3,30.01,WSW,248,6.0,14.0,64,0.00,,,0.19,meteohub,2012-11-23 20:40:00,
2012-11-23 15:41:00,44.6,32.7,30.01,South,180,8.0,14.0,63,0.00,,,0.19,meteohub,2012-11-23 20:41:00,
2012-11-23 15:43:00,44.6,32.4,30.01,WSW,248,5.0,14.0,62,0.00,,,0.19,meteohub,2012-11-23 20:43:00,
2012-11-23 15:45:00,44.6,32.0,30.01,WSW,248,4.0,16.0,61,0.00,,,0.19,meteohub,2012-11-23 20:45:00,
2012-11-23 15:46:00,44.6,32.0,30.00,WSW,248,4.0,16.0,61,0.00,,,0.19,meteohub,2012-11-23 20:46:00,
2012-11-23 15:48:00,44.6,32.0,30.00,WSW,248,9.0,16.0,61,0.00,,,0.19,meteohub,2012-11-23 20:48:00,
2012-11-23 15:50:00,44.6,31.6,30.00,WSW,248,8.0,16.0,60,0.00,,,0.19,meteohub,2012-11-23 20:50:00,
2012-11-23 15:51:00,44.6,31.6,30.00,West,270,5.0,16.0,60,0.00,,,0.19,meteohub,2012-11-23 20:51:00,
2012-11-23 15:53:00,44.6,31.1,30.00,WSW,248,4.0,16.0,59,0.00,,,0.19,meteohub,2012-11-23 20:53:00,
2012-11-23 15:56:00,44.6,31.6,30.00,WSW,248,6.0,16.0,60,0.00,,,0.19,meteohub,2012-11-23 20:56:00,
2012-11-23 15:57:00,44.6,32.0,30.00,WSW,248,9.0,16.0,61,0.00,,,0.19,meteohub,2012-11-23 20:57:00,
2012-11-23 15:58:00,44.6,31.6,30.00,West,270,4.0,16.0,60,0.00,,,0.19,meteohub,2012-11-23 20:58:00,
2012-11-23 15:59:00,44.6,31.6,30.00,West,270,4.0,16.0,60,0.00,,,0.19,meteohub,2012-11-23 20:59:00,
2012-11-23 16:01:00,44.6,31.6,29.99,WSW,248,8.0,10.0,60,0.00,,,0.19,meteohub,2012-11-23 21:01:00,
2012-11-23 16:02:00,44.6,31.6,29.99,WSW,248,8.0,10.0,60,0.00,,,0.19,meteohub,2012-11-23 21:02:00,
2012-11-23 16:03:00,44.6,31.6,29.99,WSW,248,8.0,10.0,60,0.00,,,0.19,meteohub,2012-11-23 21:03:00,
2012-11-23 16:04:00,44.6,31.6,29.99,South,180,6.0,10.0,60,0.00,,,0.19,meteohub,2012-11-23 21:04:00,
2012-11-23 16:06:00,44.8,31.8,29.99,West,270,7.0,10.0,60,0.00,,,0.19,meteohub,2012-11-23 21:06:00,
2012-11-23 16:07:00,44.8,31.8,29.99,WSW,248,3.0,10.0,60,0.00,,,0.19,meteohub,2012-11-23 21:07:00,
2012-11-23 16:08:00,44.8,31.8,29.99,South,180,9.0,10.0,60,0.00,,,0.19,meteohub,2012-11-23 21:08:00,
2012-11-23 16:09:00,44.8,31.8,29.99,South,180,9.0,10.0,60,0.00,,,0.19,meteohub,2012-11-23 21:09:00,
2012-11-23 16:12:00,44.8,31.8,29.99,WSW,248,6.0,10.0,60,0.00,,,0.19,meteohub,2012-11-23 21:12:00,
2012-11-23 16:14:00,44.8,31.8,29.99,NW,315,6.0,10.0,60,0.00,,,0.19,meteohub,2012-11-23 21:14:00,
2012-11-23 16:16:00,44.8,31.8,30.00,WSW,248,6.0,10.0,60,0.00,,,0.19,meteohub,2012-11-23 21:16:00,
2012-11-23 16:17:00,44.8,31.8,30.00,WSW,248,4.0,10.0,60,0.00,,,0.19,meteohub,2012-11-23 21:17:00,
2012-11-23 16:18:00,44.8,31.8,30.00,West,270,3.0,10.0,60,0.00,,,0.19,meteohub,2012-11-23 21:18:00,
2012-11-23 16:21:00,44.6,31.1,30.00,South,180,7.0,9.0,59,0.00,,,0.19,meteohub,2012-11-23 21:21:00,
2012-11-23 16:22:00,44.6,31.1,30.00,South,180,4.0,9.0,59,0.00,,,0.19,meteohub,2012-11-23 21:22:00,
2012-11-23 16:23:00,44.6,31.1,29.99,West,270,6.0,9.0,59,0.00,,,0.19,meteohub,2012-11-23 21:23:00,
2012-11-23 16:25:00,44.4,30.9,30.00,WSW,248,6.0,9.0,59,0.00,,,0.19,meteohub,2012-11-23 21:25:00,
2012-11-23 16:27:00,44.4,31.5,29.99,WSW,248,9.0,9.0,60,0.00,,,0.19,meteohub,2012-11-23 21:27:00,
2012-11-23 16:28:00,44.4,30.9,30.00,West,270,9.0,9.0,59,0.00,,,0.19,meteohub,2012-11-23 21:28:00,
2012-11-23 16:31:00,44.2,30.0,30.00,South,180,8.0,11.0,57,0.00,,,0.19,meteohub,2012-11-23 21:31:00,
2012-11-23 16:32:00,44.2,30.0,30.00,WSW,248,8.0,11.0,57,0.00,,,0.19,meteohub,2012-11-23 21:32:00,
2012-11-23 16:33:00,44.2,30.0,29.99,WSW,248,8.0,11.0,57,0.00,,,0.19,meteohub,2012-11-23 21:33:00,
2012-11-23 16:34:00,44.2,29.1,29.99,WSW,248,8.0,11.0,55,0.00,,,0.19,meteohub,2012-11-23 21:34:00,
2012-11-23 16:36:00,44.2,27.3,29.99,South,180,7.0,11.0,51,0.00,,,0.19,meteohub,2012-11-23 21:36:00,
2012-11-23 16:37:00,44.2,27.3,29.99,West,270,8.0,11.0,51,0.00,,,0.19,meteohub,2012-11-23 21:37:00,
2012-11-23 16:38:00,44.2,26.2,29.99,NW,315,11.0,11.0,49,0.00,,,0.19,meteohub,2012-11-23 21:38:00,
2012-11-23 16:39:00,44.2,25.7,30.00,South,180,13.0,13.0,48,0.00,,,0.19,meteohub,2012-11-23 21:39:00,
2012-11-23 16:43:00,44.2,24.3,29.99,WSW,248,8.0,14.0,45,0.00,,,0.19,meteohub,2012-11-23 21:43:00,
2012-11-23 16:44:00,44.2,23.7,29.99,WSW,248,5.0,14.0,44,0.00,,,0.19,meteohub,2012-11-23 21:44:00,
2012-11-23 16:48:00,44.1,23.0,30.00,West,270,10.0,14.0,43,0.00,,,0.19,meteohub,2012-11-23 21:48:00,
2012-11-23 16:49:00,44.1,23.0,29.99,South,180,9.0,14.0,43,0.00,,,0.19,meteohub,2012-11-23 21:49:00,
2012-11-23 16:52:00,44.1,23.0,30.00,NW,315,8.0,14.0,43,0.00,,,0.19,meteohub,2012-11-23 21:52:00,
2012-11-23 16:54:00,44.1,23.0,30.00,NW,315,8.0,14.0,43,0.00,,,0.19,meteohub,2012-11-23 21:54:00,
2012-11-23 16:55:00,44.1,23.0,29.99,WSW,248,12.0,14.0,43,0.00,,,0.19,meteohub,2012-11-23 21:55:00,
2012-11-23 16:56:00,44.1,23.0,29.99,WSW,248,10.0,14.0,43,0.00,,,0.19,meteohub,2012-11-23 21:56:00,
2012-11-23 16:57:00,44.1,23.0,30.00,West,270,9.0,14.0,43,0.00,,,0.19,meteohub,2012-11-23 21:57:00,
2012-11-23 17:00:00,43.9,23.4,30.00,WSW,248,12.0,14.0,44,0.00,,,0.19,meteohub,2012-11-23 22:00:00,
2012-11-23 17:01:00,43.9,23.4,30.00,WSW,248,15.0,15.0,44,0.00,,,0.19,meteohub,2012-11-23 22:01:00,
2012-11-23 17:02:00,43.9,23.4,30.00,West,270,10.0,14.0,44,0.00,,,0.19,meteohub,2012-11-23 22:02:00,
2012-11-23 17:05:00,44.1,23.5,30.00,WNW,293,15.0,15.0,44,0.00,,,0.19,meteohub,2012-11-23 22:05:00,
2012-11-23 17:06:00,44.1,23.5,29.99,WSW,248,21.0,21.0,44,0.00,,,0.19,meteohub,2012-11-23 22:06:00,
2012-11-23 17:07:00,44.1,24.1,30.00,WSW,248,11.0,15.0,45,0.00,,,0.19,meteohub,2012-11-23 22:07:00,
2012-11-23 17:08:00,44.1,24.1,30.00,WSW,248,10.0,15.0,45,0.00,,,0.19,meteohub,2012-11-23 22:08:00,
2012-11-23 17:10:00,44.1,24.1,30.00,West,270,8.0,21.0,45,0.00,,,0.19,meteohub,2012-11-23 22:10:00,
2012-11-23 17:11:00,43.9,23.9,30.00,NW,315,12.0,21.0,45,0.00,,,0.19,meteohub,2012-11-23 22:11:00,
2012-11-23 17:12:00,43.9,23.9,30.00,NW,315,12.0,21.0,45,0.00,,,0.19,meteohub,2012-11-23 22:12:00,
2012-11-23 17:13:00,43.9,23.9,30.00,WSW,248,10.0,21.0,45,0.00,,,0.19,meteohub,2012-11-23 22:13:00,
2012-11-23 17:16:00,43.9,23.9,30.00,WSW,248,13.0,21.0,45,0.00,,,0.19,meteohub,2012-11-23 22:16:00,
2012-11-23 17:17:00,43.9,23.9,30.00,WSW,248,15.0,21.0,45,0.00,,,0.19,meteohub,2012-11-23 22:17:00,
2012-11-23 17:18:00,43.9,23.9,30.00,WSW,248,15.0,21.0,45,0.00,,,0.19,meteohub,2012-11-23 22:18:00,
2012-11-23 17:22:00,43.9,23.9,30.00,NW,315,8.0,21.0,45,0.00,,,0.19,meteohub,2012-11-23 22:22:00,
2012-11-23 17:23:00,43.7,23.7,30.00,NW,315,11.0,21.0,45,0.00,,,0.19,meteohub,2012-11-23 22:23:00,
2012-11-23 17:27:00,43.7,23.2,30.01,South,180,15.0,15.0,44,0.00,,,0.19,meteohub,2012-11-23 22:27:00,
2012-11-23 17:28:00,43.7,23.2,30.01,NW,315,13.0,15.0,44,0.00,,,0.19,meteohub,2012-11-23 22:28:00,
2012-11-23 17:29:00,43.7,23.2,30.01,WSW,248,5.0,15.0,44,0.00,,,0.19,meteohub,2012-11-23 22:29:00,
2012-11-23 17:32:00,43.7,23.7,30.00,South,180,14.0,15.0,45,0.00,,,0.19,meteohub,2012-11-23 22:32:00,
2012-11-23 17:33:00,43.7,23.7,30.00,South,180,14.0,15.0,45,0.00,,,0.19,meteohub,2012-11-23 22:33:00,
2012-11-23 17:34:00,43.5,23.5,30.01,South,180,7.0,15.0,45,0.00,,,0.19,meteohub,2012-11-23 22:34:00,
2012-11-23 17:38:00,43.5,21.4,30.01,NW,315,21.0,23.0,41,0.00,,,0.19,meteohub,2012-11-23 22:38:00,
2012-11-23 17:39:00,43.5,21.4,30.01,West,270,16.0,23.0,41,0.00,,,0.19,meteohub,2012-11-23 22:39:00,
2012-11-23 17:40:00,43.5,20.8,30.01,West,270,8.0,23.0,40,0.00,,,0.19,meteohub,2012-11-23 22:40:00,
2012-11-23 17:44:00,43.3,17.6,30.01,NW,315,15.0,23.0,35,0.00,,,0.19,meteohub,2012-11-23 22:44:00,
2012-11-23 17:45:00,43.2,15.3,30.01,South,180,17.0,23.0,32,0.00,,,0.19,meteohub,2012-11-23 22:45:00,
2012-11-23 17:46:00,43.2,15.3,30.01,South,180,17.0,23.0,32,0.00,,,0.19,meteohub,2012-11-23 22:46:00,
2012-11-23 17:49:00,43.2,13.1,30.01,West,270,15.0,23.0,29,0.00,,,0.19,meteohub,2012-11-23 22:49:00,
2012-11-23 17:51:00,43.2,10.6,30.02,WSW,248,15.0,21.0,26,0.00,,,0.19,meteohub,2012-11-23 22:51:00,
2012-11-23 17:53:00,43.2,8.8,30.02,South,180,15.0,21.0,24,0.00,,,0.19,meteohub,2012-11-23 22:53:00,
2012-11-23 17:55:00,43.0,8.6,30.02,West,270,8.0,21.0,24,0.00,,,0.19,meteohub,2012-11-23 22:55:00,
2012-11-23 17:57:00,43.0,8.6,30.02,WSW,248,11.0,17.0,24,0.00,,,0.19,meteohub,2012-11-23 22:57:00,
2012-11-23 17:58:00,43.0,5.7,30.02,WSW,248,6.0,17.0,21,0.00,,,0.19,meteohub,2012-11-23 22:58:00,
2012-11-23 17:59:00,43.0,5.7,30.02,West,270,9.0,17.0,21,0.00,,,0.19,meteohub,2012-11-23 22:59:00,
2012-11-23 18:00:00,42.8,5.5,30.02,West,270,8.0,17.0,21,0.00,,,0.19,meteohub,2012-11-23 23:00:00,
2012-11-23 18:02:00,42.6,5.4,30.02,NW,315,12.0,17.0,21,0.00,,,0.19,meteohub,2012-11-23 23:02:00,
2012-11-23 18:04:00,42.6,5.4,30.02,NW,315,12.0,17.0,21,0.00,,,0.19,meteohub,2012-11-23 23:04:00,
2012-11-23 18:05:00,42.6,5.4,30.02,NW,315,12.0,17.0,21,0.00,,,0.19,meteohub,2012-11-23 23:05:00,
2012-11-23 18:06:00,42.4,0.7,30.02,NW,315,8.0,15.0,17,0.00,,,0.19,meteohub,2012-11-23 23:06:00,
2012-11-23 18:08:00,42.4,0.7,30.02,South,180,11.0,15.0,17,0.00,,,0.19,meteohub,2012-11-23 23:08:00,
2012-11-23 18:09:00,42.4,-2.0,30.01,WSW,248,8.0,15.0,15,0.00,,,0.19,meteohub,2012-11-23 23:09:00,
2012-11-23 18:10:00,42.4,-3.5,30.02,WSW,248,11.0,12.0,14,0.00,,,0.19,meteohub,2012-11-23 23:10:00,
2012-11-23 18:12:00,42.6,-3.3,30.02,West,270,8.0,12.0,14,0.00,,,0.19,meteohub,2012-11-23 23:12:00,
2012-11-23 18:13:00,42.6,-4.9,30.02,West,270,13.0,13.0,13,0.00,,,0.19,meteohub,2012-11-23 23:13:00,
2012-11-23 18:14:00,42.6,-4.9,30.02,WSW,248,9.0,12.0,13,0.00,,,0.19,meteohub,2012-11-23 23:14:00,
2012-11-23 18:15:00,42.6,-8.3,30.02,West,270,12.0,12.0,11,0.00,,,0.19,meteohub,2012-11-23 23:15:00,
2012-11-23 18:17:00,42.6,-6.5,30.02,West,270,20.0,20.0,12,0.00,,,0.19,meteohub,2012-11-23 23:17:00,
2012-11-23 18:18:00,42.6,-8.3,30.03,West,270,13.0,16.0,11,0.00,,,0.19,meteohub,2012-11-23 23:18:00,
2012-11-23 18:19:00,42.6,-8.3,30.02,West,270,13.0,16.0,11,0.00,,,0.19,meteohub,2012-11-23 23:19:00,
2012-11-23 18:20:00,42.8,-10.1,30.03,NW,315,8.0,20.0,10,0.00,,,0.19,meteohub,2012-11-23 23:20:00,
2012-11-23 18:22:00,42.8,-8.1,30.03,WSW,248,8.0,20.0,11,0.00,,,0.19,meteohub,2012-11-23 23:22:00,
2012-11-23 18:24:00,42.8,-6.3,30.03,WSW,248,4.0,20.0,12,0.00,,,0.19,meteohub,2012-11-23 23:24:00,
2012-11-23 18:25:00,42.6,-3.3,30.03,West,270,6.0,20.0,14,0.00,,,0.19,meteohub,2012-11-23 23:25:00,
2012-11-23 18:26:00,42.4,-3.5,30.03,West,270,15.0,20.0,14,0.00,,,0.19,meteohub,2012-11-23 23:26:00,
2012-11-23 18:27:00,42.3,-5.1,30.03,West,270,13.0,20.0,13,0.00,,,0.19,meteohub,2012-11-23 23:27:00,
2012-11-23 18:29:00,42.3,-6.7,30.03,WSW,248,21.0,21.0,12,0.00,,,0.19,meteohub,2012-11-23 23:29:00,
2012-11-23 18:30:00,42.3,-6.7,30.03,NW,315,14.0,20.0,12,0.00,,,0.19,meteohub,2012-11-23 23:30:00,
2012-11-23 18:31:00,42.3,-6.7,30.04,NW,315,18.0,20.0,12,0.00,,,0.19,meteohub,2012-11-23 23:31:00,
2012-11-23 18:33:00,42.1,-3.6,30.03,West,270,4.0,20.0,14,0.00,,,0.19,meteohub,2012-11-23 23:33:00,
2012-11-23 18:35:00,42.1,-3.6,30.04,North,0,11.0,20.0,14,0.00,,,0.19,meteohub,2012-11-23 23:35:00,
2012-11-23 18:36:00,41.9,-2.4,30.04,WSW,248,5.0,21.0,15,0.00,,,0.19,meteohub,2012-11-23 23:36:00,
2012-11-23 18:39:00,41.7,-1.1,30.04,North,0,8.0,21.0,16,0.00,,,0.19,meteohub,2012-11-23 23:39:00,
2012-11-23 18:40:00,41.7,0.1,30.04,NW,315,12.0,21.0,17,0.00,,,0.19,meteohub,2012-11-23 23:40:00,
2012-11-23 18:42:00,41.5,-2.7,30.04,NW,315,14.0,21.0,15,0.00,,,0.19,meteohub,2012-11-23 23:42:00,
2012-11-23 18:45:00,41.4,-2.9,30.04,WSW,248,8.0,21.0,15,0.00,,,0.19,meteohub,2012-11-23 23:45:00,
2012-11-23 18:47:00,41.2,-1.7,30.04,North,0,8.0,18.0,16,0.00,,,0.19,meteohub,2012-11-23 23:47:00,
2012-11-23 18:50:00,41.0,-0.6,30.04,NW,315,8.0,18.0,17,0.00,,,0.19,meteohub,2012-11-23 23:50:00,
2012-11-23 18:51:00,41.0,-0.6,30.04,NW,315,8.0,18.0,17,0.00,,,0.19,meteohub,2012-11-23 23:51:00,
2012-11-23 18:52:00,41.0,-0.6,30.04,NW,315,8.0,18.0,17,0.00,,,0.19,meteohub,2012-11-23 23:52:00,
2012-11-23 18:53:00,41.0,-0.6,30.04,NW,315,8.0,18.0,17,0.00,,,0.19,meteohub,2012-11-23 23:53:00,
2012-11-23 18:56:00,41.0,-0.6,30.04,NW,315,8.0,18.0,17,0.00,,,0.19,meteohub,2012-11-23 23:56:00,
2012-11-23 18:57:00,40.3,-3.6,30.04,SW,225,18.0,18.0,15,0.00,,,0.19,meteohub,2012-11-23 23:57:00,
2012-11-23 18:58:00,40.1,-3.8,30.04,North,0,18.0,18.0,15,0.00,,,0.19,meteohub,2012-11-23 23:58:00,
2012-11-23 19:01:00,40.1,-3.8,30.04,North,0,11.0,20.0,15,0.00,,,0.19,meteohub,2012-11-24 00:01:00,
2012-11-23 19:02:00,40.1,-3.8,30.04,North,0,11.0,20.0,15,0.00,,,0.19,meteohub,2012-11-24 00:02:00,
2012-11-23 19:05:00,39.7,-5.6,30.04,West,270,15.0,20.0,14,0.00,,,0.19,meteohub,2012-11-24 00:05:00,
2012-11-23 19:06:00,39.6,-4.4,30.05,WSW,248,8.0,20.0,15,0.00,,,0.19,meteohub,2012-11-24 00:06:00,
2012-11-23 19:07:00,39.6,-4.4,30.04,WNW,293,8.0,20.0,15,0.00,,,0.19,meteohub,2012-11-24 00:07:00,
2012-11-23 19:10:00,39.4,-3.1,30.05,NE,45,14.0,20.0,16,0.00,,,0.19,meteohub,2012-11-24 00:10:00,
2012-11-23 19:12:00,39.2,-3.3,30.05,NE,45,8.0,20.0,16,0.00,,,0.19,meteohub,2012-11-24 00:12:00,
2012-11-23 19:13:00,39.2,-3.3,30.05,NW,315,9.0,20.0,16,0.00,,,0.19,meteohub,2012-11-24 00:13:00,
2012-11-23 19:16:00,39.2,-3.3,30.05,NW,315,9.0,21.0,16,0.00,,,0.19,meteohub,2012-11-24 00:16:00,
2012-11-23 19:17:00,39.2,-3.3,30.05,NW,315,9.0,21.0,16,0.00,,,0.19,meteohub,2012-11-24 00:17:00,
2012-11-23 19:18:00,39.2,-3.3,30.06,NW,315,9.0,21.0,16,0.00,,,0.19,meteohub,2012-11-24 00:18:00,
2012-11-23 19:21:00,39.2,-3.3,30.06,NW,315,9.0,21.0,16,0.00,,,0.19,meteohub,2012-11-24 00:21:00,
2012-11-23 19:22:00,39.2,-3.3,30.06,NW,315,9.0,21.0,16,0.00,,,0.19,meteohub,2012-11-24 00:22:00,
2012-11-23 19:23:00,38.3,-4.0,30.06,WNW,293,8.0,21.0,16,0.00,,,0.19,meteohub,2012-11-24 00:23:00,
2012-11-23 19:27:00,37.9,-4.4,30.06,NW,315,21.0,21.0,16,0.00,,,0.19,meteohub,2012-11-24 00:27:00,
2012-11-23 19:28:00,37.9,-4.4,30.06,West,270,12.0,21.0,16,0.00,,,0.19,meteohub,2012-11-24 00:28:00,
2012-11-23 19:29:00,37.8,-4.4,30.06,North,0,18.0,21.0,16,0.00,,,0.19,meteohub,2012-11-24 00:29:00,
2012-11-23 19:32:00,37.4,-3.5,30.06,NW,315,8.0,22.0,17,0.00,,,0.19,meteohub,2012-11-24 00:32:00,
2012-11-23 19:33:00,37.4,-3.5,30.06,NW,315,8.0,22.0,17,0.00,,,0.19,meteohub,2012-11-24 00:33:00,
2012-11-23 19:34:00,37.4,-3.5,30.06,West,270,13.0,22.0,17,0.00,,,0.19,meteohub,2012-11-24 00:34:00,
2012-11-23 19:36:00,37.2,-1.3,30.06,East,90,4.0,22.0,19,0.00,,,0.19,meteohub,2012-11-24 00:36:00,
2012-11-23 19:38:00,37.0,-1.5,30.07,West,270,17.0,22.0,19,0.00,,,0.19,meteohub,2012-11-24 00:38:00,
2012-11-23 19:39:00,37.0,-1.5,30.07,West,270,17.0,22.0,19,0.00,,,0.19,meteohub,2012-11-24 00:39:00,
2012-11-23 19:41:00,36.9,-3.8,30.07,NW,315,21.0,22.0,17,0.00,,,0.19,meteohub,2012-11-24 00:41:00,
2012-11-23 19:44:00,36.7,-1.7,30.07,WSW,248,11.0,22.0,19,0.00,,,0.19,meteohub,2012-11-24 00:44:00,
2012-11-23 19:45:00,36.5,-1.8,30.07,West,270,13.0,22.0,19,0.00,,,0.19,meteohub,2012-11-24 00:45:00,
2012-11-23 19:47:00,36.5,-1.8,30.08,West,270,13.0,33.0,19,0.00,,,0.19,meteohub,2012-11-24 00:47:00,
2012-11-23 19:49:00,36.3,0.1,30.08,NW,315,11.0,33.0,21,0.00,,,0.19,meteohub,2012-11-24 00:49:00,
2012-11-23 19:50:00,36.3,-0.9,30.08,West,270,6.0,33.0,20,0.00,,,0.19,meteohub,2012-11-24 00:50:00,
2012-11-23 19:51:00,36.1,-1.1,30.08,South,180,9.0,33.0,20,0.00,,,0.19,meteohub,2012-11-24 00:51:00,
2012-11-23 19:52:00,36.1,-4.5,30.08,South,180,16.0,33.0,17,0.00,,,0.19,meteohub,2012-11-24 00:52:00,
2012-11-23 19:54:00,36.0,-6.0,30.08,North,0,8.0,33.0,16,0.00,,,0.19,meteohub,2012-11-24 00:54:00,
2012-11-23 19:56:00,36.0,-7.2,30.08,South,180,11.0,21.0,15,0.00,,,0.19,meteohub,2012-11-24 00:56:00,
2012-11-23 19:57:00,35.8,-6.0,30.09,NW,315,9.0,21.0,16,0.00,,,0.19,meteohub,2012-11-24 00:57:00,
2012-11-23 19:59:00,35.8,-2.6,30.08,East,90,19.0,21.0,19,0.00,,,0.19,meteohub,2012-11-24 00:59:00,
2012-11-23 20:02:00,35.6,-2.6,30.08,NNE,23,8.0,19.0,19,0.00,,,0.19,meteohub,2012-11-24 01:02:00,
2012-11-23 20:03:00,35.6,-2.6,30.08,NNE,23,8.0,19.0,19,0.00,,,0.19,meteohub,2012-11-24 01:03:00,
2012-11-23 20:05:00,35.6,-2.6,30.08,NNE,23,8.0,19.0,19,0.00,,,0.19,meteohub,2012-11-24 01:05:00,
2012-11-23 20:07:00,34.5,0.5,30.09,North,0,8.0,19.0,23,0.00,,,0.19,meteohub,2012-11-24 01:07:00,
2012-11-23 20:08:00,34.5,0.5,30.09,SE,135,13.0,19.0,23,0.00,,,0.19,meteohub,2012-11-24 01:08:00,
2012-11-23 20:09:00,34.3,1.2,30.09,West,270,8.0,19.0,24,0.00,,,0.19,meteohub,2012-11-24 01:09:00,
2012-11-23 20:10:00,34.2,0.1,30.09,WSW,248,14.0,19.0,23,0.00,,,0.19,meteohub,2012-11-24 01:10:00,
2012-11-23 20:13:00,34.2,1.0,30.09,WSW,248,8.0,19.0,24,0.00,,,0.19,meteohub,2012-11-24 01:13:00,
2012-11-23 20:14:00,34.0,1.0,30.09,NW,315,7.0,19.0,24,0.00,,,0.19,meteohub,2012-11-24 01:14:00,
2012-11-23 20:15:00,34.0,0.1,30.09,NW,315,16.0,16.0,23,0.00,,,0.19,meteohub,2012-11-24 01:15:00,
2012-11-23 20:18:00,33.6,-0.2,30.09,NW,315,20.0,20.0,23,0.00,,,0.19,meteohub,2012-11-24 01:18:00,
2012-11-23 20:19:00,33.6,-1.1,30.09,NW,315,15.0,15.0,22,0.00,,,0.19,meteohub,2012-11-24 01:19:00,
2012-11-23 20:20:00,33.4,-1.3,30.09,West,270,8.0,20.0,22,0.00,,,0.19,meteohub,2012-11-24 01:20:00,
2012-11-23 20:21:00,33.4,-1.3,30.09,WSW,248,8.0,20.0,22,0.00,,,0.19,meteohub,2012-11-24 01:21:00,
2012-11-23 20:23:00,33.3,-1.5,30.09,NW,315,16.0,20.0,22,0.00,,,0.19,meteohub,2012-11-24 01:23:00,
2012-11-23 20:24:00,33.3,-1.5,30.09,NW,315,16.0,20.0,22,0.00,,,0.19,meteohub,2012-11-24 01:24:00,
2012-11-23 20:26:00,33.3,-1.5,30.09,West,270,8.0,20.0,22,0.00,,,0.19,meteohub,2012-11-24 01:26:00,
2012-11-23 20:27:00,33.1,-1.7,30.09,NE,45,15.0,20.0,22,0.00,,,0.19,meteohub,2012-11-24 01:27:00,
2012-11-23 20:28:00,33.1,-2.6,30.09,WSW,248,9.0,20.0,21,0.00,,,0.19,meteohub,2012-11-24 01:28:00,
2012-11-23 20:29:00,33.1,-1.7,30.09,North,0,12.0,20.0,22,0.00,,,0.19,meteohub,2012-11-24 01:29:00,
2012-11-23 20:31:00,33.1,-1.7,30.09,West,270,7.0,20.0,22,0.00,,,0.19,meteohub,2012-11-24 01:31:00,
2012-11-23 20:33:00,33.1,-1.7,30.09,West,270,6.0,20.0,22,0.00,,,0.19,meteohub,2012-11-24 01:33:00,
2012-11-23 20:34:00,33.1,-1.7,30.10,North,0,13.0,20.0,22,0.00,,,0.19,meteohub,2012-11-24 01:34:00,
2012-11-23 20:36:00,32.9,-1.8,30.10,NW,315,15.0,17.0,22,0.00,,,0.19,meteohub,2012-11-24 01:36:00,
2012-11-23 20:39:00,32.7,-2.0,30.10,NW,315,10.0,17.0,22,0.00,,,0.19,meteohub,2012-11-24 01:39:00,
2012-11-23 20:40:00,32.7,-2.0,30.10,NW,315,21.0,21.0,22,0.00,,,0.19,meteohub,2012-11-24 01:40:00,
2012-11-23 20:41:00,32.7,-0.9,30.10,NE,45,15.0,16.0,23,0.00,,,0.19,meteohub,2012-11-24 01:41:00,
2012-11-23 20:44:00,32.4,-0.4,30.10,NW,315,15.0,16.0,24,0.00,,,0.19,meteohub,2012-11-24 01:44:00,
2012-11-23 20:46:00,32.4,-0.4,30.09,NW,315,12.0,21.0,24,0.00,,,0.19,meteohub,2012-11-24 01:46:00,
2012-11-23 20:47:00,32.4,0.5,30.10,North,0,21.0,21.0,25,0.00,,,0.19,meteohub,2012-11-24 01:47:00,
2012-11-23 20:50:00,32.2,0.3,30.10,West,270,8.0,21.0,25,0.00,,,0.19,meteohub,2012-11-24 01:50:00,
2012-11-23 20:51:00,32.2,0.3,30.10,NW,315,9.0,21.0,25,0.00,,,0.19,meteohub,2012-11-24 01:51:00,
2012-11-23 20:53:00,32.0,0.1,30.10,WSW,248,6.0,21.0,25,0.00,,,0.19,meteohub,2012-11-24 01:53:00,
2012-11-23 20:55:00,32.0,1.0,30.10,West,270,8.0,21.0,26,0.00,,,0.19,meteohub,2012-11-24 01:55:00,
2012-11-23 20:57:00,32.0,1.0,30.10,WSW,248,9.0,21.0,26,0.00,,,0.19,meteohub,2012-11-24 01:57:00,
2012-11-23 20:59:00,31.8,0.0,30.10,NW,315,8.0,21.0,25,0.00,,,0.19,meteohub,2012-11-24 01:59:00,
2012-11-23 21:01:00,31.8,0.0,30.10,North,0,8.0,21.0,25,0.00,,,0.19,meteohub,2012-11-24 02:01:00,
2012-11-23 21:02:00,31.8,0.0,30.10,North,0,8.0,21.0,25,0.00,,,0.19,meteohub,2012-11-24 02:02:00,
2012-11-23 21:04:00,31.8,0.0,30.10,North,0,8.0,21.0,25,0.00,,,0.19,meteohub,2012-11-24 02:04:00,
2012-11-23 21:05:00,31.8,0.0,30.10,North,0,8.0,19.0,25,0.00,,,0.19,meteohub,2012-11-24 02:05:00,
2012-11-23 21:06:00,31.8,0.0,30.10,North,0,8.0,19.0,25,0.00,,,0.19,meteohub,2012-11-24 02:06:00,
2012-11-23 21:07:00,31.6,-0.2,30.10,WSW,248,8.0,19.0,25,0.00,,,0.19,meteohub,2012-11-24 02:07:00,
2012-11-23 21:09:00,31.6,-0.2,30.10,West,270,7.0,19.0,25,0.00,,,0.19,meteohub,2012-11-24 02:09:00,
2012-11-23 21:10:00,31.5,-0.4,30.10,WSW,248,8.0,19.0,25,0.00,,,0.19,meteohub,2012-11-24 02:10:00,
2012-11-23 21:12:00,31.5,-0.4,30.10,South,180,8.0,19.0,25,0.00,,,0.19,meteohub,2012-11-24 02:12:00,
2012-11-23 21:15:00,31.5,0.5,30.10,NW,315,16.0,19.0,26,0.00,,,0.19,meteohub,2012-11-24 02:15:00,
2012-11-23 21:16:00,31.5,0.5,30.10,NW,315,4.0,18.0,26,0.00,,,0.19,meteohub,2012-11-24 02:16:00,
2012-11-23 21:17:00,31.5,0.5,30.10,NW,315,8.0,18.0,26,0.00,,,0.19,meteohub,2012-11-24 02:17:00,
2012-11-23 21:18:00,31.5,0.5,30.10,NW,315,10.0,18.0,26,0.00,,,0.19,meteohub,2012-11-24 02:18:00,
2012-11-23 21:21:00,31.3,0.3,30.10,West,270,10.0,18.0,26,0.00,,,0.19,meteohub,2012-11-24 02:21:00,
2012-11-23 21:22:00,31.3,0.3,30.10,South,180,7.0,18.0,26,0.00,,,0.19,meteohub,2012-11-24 02:22:00,
2012-11-23 21:23:00,31.1,1.0,30.10,North,0,4.0,18.0,27,0.00,,,0.19,meteohub,2012-11-24 02:23:00,
2012-11-23 21:26:00,31.1,0.1,30.10,West,270,13.0,18.0,26,0.00,,,0.19,meteohub,2012-11-24 02:26:00,
2012-11-23 21:27:00,30.9,0.0,30.10,WSW,248,7.0,18.0,26,0.00,,,0.19,meteohub,2012-11-24 02:27:00,
2012-11-23 21:28:00,30.9,0.0,30.10,West,270,17.0,18.0,26,0.00,,,0.19,meteohub,2012-11-24 02:28:00,
2012-11-23 21:31:00,30.9,0.9,30.10,East,90,4.0,17.0,27,0.00,,,0.19,meteohub,2012-11-24 02:31:00,
2012-11-23 21:33:00,30.9,1.6,30.10,NW,315,8.0,17.0,28,0.00,,,0.19,meteohub,2012-11-24 02:33:00,
2012-11-23 21:34:00,30.7,1.4,30.10,NW,315,11.0,17.0,28,0.00,,,0.19,meteohub,2012-11-24 02:34:00,
2012-11-23 21:36:00,30.6,0.5,30.10,North,0,16.0,21.0,27,0.00,,,0.19,meteohub,2012-11-24 02:36:00,
2012-11-23 21:38:00,30.6,0.5,30.10,NW,315,4.0,21.0,27,0.00,,,0.19,meteohub,2012-11-24 02:38:00,
2012-11-23 21:40:00,30.4,1.2,30.10,NW,315,11.0,21.0,28,0.00,,,0.19,meteohub,2012-11-24 02:40:00,
2012-11-23 21:42:00,30.4,1.2,30.10,South,180,8.0,21.0,28,0.00,,,0.19,meteohub,2012-11-24 02:42:00,
2012-11-23 21:43:00,30.2,1.8,30.10,WSW,248,12.0,21.0,29,0.00,,,0.19,meteohub,2012-11-24 02:43:00,
2012-11-23 21:44:00,30.2,1.8,30.10,WSW,248,12.0,21.0,29,0.00,,,0.19,meteohub,2012-11-24 02:44:00,
2012-11-23 21:46:00,30.0,1.6,30.10,West,270,8.0,16.0,29,0.00,,,0.19,meteohub,2012-11-24 02:46:00,
2012-11-23 21:47:00,30.0,1.6,30.10,South,180,11.0,16.0,29,0.00,,,0.19,meteohub,2012-11-24 02:47:00,
2012-11-23 21:49:00,29.8,1.4,30.10,West,270,5.0,16.0,29,0.00,,,0.19,meteohub,2012-11-24 02:49:00,
2012-11-23 21:52:00,29.7,1.2,30.10,West,270,8.0,16.0,29,0.00,,,0.19,meteohub,2012-11-24 02:52:00,
2012-11-23 21:54:00,29.7,1.9,30.10,North,0,8.0,16.0,30,0.00,,,0.19,meteohub,2012-11-24 02:54:00,
2012-11-23 21:57:00,29.5,1.0,30.10,NW,315,11.0,15.0,29,0.00,,,0.19,meteohub,2012-11-24 02:57:00,
2012-11-23 21:58:00,29.5,1.0,30.10,North,0,8.0,15.0,29,0.00,,,0.19,meteohub,2012-11-24 02:58:00,
2012-11-23 21:59:00,29.5,1.0,30.10,North,0,9.0,15.0,29,0.00,,,0.19,meteohub,2012-11-24 02:59:00,
2012-11-23 22:00:00,29.5,-0.4,30.10,NW,315,14.0,15.0,27,0.00,,,0.19,meteohub,2012-11-24 03:00:00,
2012-11-23 22:03:00,29.5,-0.4,30.10,NW,315,14.0,15.0,27,0.00,,,0.19,meteohub,2012-11-24 03:03:00,
2012-11-23 22:04:00,29.5,-0.4,30.11,NW,315,14.0,15.0,27,0.00,,,0.19,meteohub,2012-11-24 03:04:00,
2012-11-23 22:05:00,29.5,-0.4,30.10,NW,315,14.0,15.0,27,0.00,,,0.19,meteohub,2012-11-24 03:05:00,
2012-11-23 22:08:00,29.3,-2.2,30.11,WSW,248,7.0,15.0,25,0.00,,,0.19,meteohub,2012-11-24 03:08:00,
2012-11-23 22:10:00,29.3,-3.1,30.10,NW,315,16.0,16.0,24,0.00,,,0.19,meteohub,2012-11-24 03:10:00,
2012-11-23 22:11:00,29.3,-3.1,30.11,NW,315,6.0,14.0,24,0.00,,,0.19,meteohub,2012-11-24 03:11:00,
2012-11-23 22:13:00,29.3,-4.9,30.10,North,0,14.0,14.0,22,0.00,,,0.19,meteohub,2012-11-24 03:13:00,
2012-11-23 22:16:00,29.1,-5.1,30.11,West,270,17.0,17.0,22,0.00,,,0.19,meteohub,2012-11-24 03:16:00,
2012-11-23 22:18:00,29.1,-5.1,30.11,West,270,19.0,19.0,22,0.00,,,0.19,meteohub,2012-11-24 03:18:00,
2012-11-23 22:19:00,29.1,-4.0,30.11,NW,315,12.0,16.0,23,0.00,,,0.19,meteohub,2012-11-24 03:19:00,
2012-11-23 22:21:00,29.1,-5.1,30.11,West,270,8.0,19.0,22,0.00,,,0.19,meteohub,2012-11-24 03:21:00,
2012-11-23 22:23:00,29.1,-4.0,30.11,West,270,7.0,19.0,23,0.00,,,0.19,meteohub,2012-11-24 03:23:00,
2012-11-23 22:24:00,29.1,-3.3,30.11,West,270,11.0,19.0,24,0.00,,,0.19,meteohub,2012-11-24 03:24:00,
2012-11-23 22:26:00,29.1,-5.1,30.11,NW,315,16.0,19.0,22,0.00,,,0.19,meteohub,2012-11-24 03:26:00,
2012-11-23 22:28:00,28.9,-5.1,30.11,NW,315,10.0,19.0,22,0.00,,,0.19,meteohub,2012-11-24 03:28:00,
2012-11-23 22:30:00,28.9,-5.1,30.11,NW,315,15.0,19.0,22,0.00,,,0.19,meteohub,2012-11-24 03:30:00,
2012-11-23 22:32:00,28.9,-5.1,30.11,NW,315,12.0,19.0,22,0.00,,,0.19,meteohub,2012-11-24 03:32:00,
2012-11-23 22:33:00,28.9,-4.2,30.10,West,270,10.0,19.0,23,0.00,,,0.19,meteohub,2012-11-24 03:33:00,
2012-11-23 22:34:00,28.9,-4.2,30.11,North,0,13.0,19.0,23,0.00,,,0.19,meteohub,2012-11-24 03:34:00,
2012-11-23 22:35:00,28.9,-4.2,30.11,WSW,248,5.0,17.0,23,0.00,,,0.19,meteohub,2012-11-24 03:35:00,
2012-11-23 22:37:00,28.9,-3.3,30.11,West,270,12.0,17.0,24,0.00,,,0.19,meteohub,2012-11-24 03:37:00,
2012-11-23 22:38:00,28.9,-4.2,30.11,West,270,16.0,17.0,23,0.00,,,0.19,meteohub,2012-11-24 03:38:00,
2012-11-23 22:39:00,28.9,-3.3,30.11,WSW,248,7.0,17.0,24,0.00,,,0.19,meteohub,2012-11-24 03:39:00,
2012-11-23 22:42:00,28.9,-4.2,30.11,NE,45,24.0,24.0,23,0.00,,,0.19,meteohub,2012-11-24 03:42:00,
2012-11-23 22:44:00,28.8,-3.5,30.11,NW,315,14.0,16.0,24,0.00,,,0.19,meteohub,2012-11-24 03:44:00,
2012-11-23 22:47:00,28.8,-3.5,30.10,West,270,7.0,24.0,24,0.00,,,0.19,meteohub,2012-11-24 03:47:00,
2012-11-23 22:49:00,28.8,-1.8,30.10,NW,315,16.0,24.0,26,0.00,,,0.19,meteohub,2012-11-24 03:49:00,
2012-11-23 22:50:00,28.8,-2.6,30.10,South,180,11.0,24.0,25,0.00,,,0.19,meteohub,2012-11-24 03:50:00,
2012-11-23 22:52:00,28.8,-2.6,30.10,SE,135,15.0,24.0,25,0.00,,,0.19,meteohub,2012-11-24 03:52:00,
2012-11-23 22:54:00,28.8,-1.8,30.10,WSW,248,10.0,24.0,26,0.00,,,0.19,meteohub,2012-11-24 03:54:00,
2012-11-23 22:55:00,28.8,-1.8,30.10,WSW,248,10.0,24.0,26,0.00,,,0.19,meteohub,2012-11-24 03:55:00,
2012-11-23 22:57:00,28.6,-2.0,30.10,NW,315,12.0,24.0,26,0.00,,,0.19,meteohub,2012-11-24 03:57:00,
2012-11-23 23:00:00,28.6,-1.1,30.10,West,270,14.0,24.0,27,0.00,,,0.19,meteohub,2012-11-24 04:00:00,
2012-11-23 23:02:00,28.6,-1.1,30.10,West,270,14.0,18.0,27,0.00,,,0.19,meteohub,2012-11-24 04:02:00,
2012-11-23 23:06:00,28.6,-1.1,30.10,West,270,14.0,18.0,27,0.00,,,0.19,meteohub,2012-11-24 04:06:00,
2012-11-23 23:08:00,28.2,-0.8,30.10,West,270,15.0,18.0,28,0.00,,,0.19,meteohub,2012-11-24 04:08:00,
2012-11-23 23:12:00,28.4,-0.6,30.10,West,270,8.0,15.0,28,0.00,,,0.19,meteohub,2012-11-24 04:12:00,
2012-11-23 23:13:00,28.4,-0.6,30.10,WSW,248,10.0,15.0,28,0.00,,,0.19,meteohub,2012-11-24 04:13:00,
2012-11-23 23:14:00,28.4,-0.6,30.10,West,270,10.0,15.0,28,0.00,,,0.19,meteohub,2012-11-24 04:14:00,
2012-11-23 23:17:00,28.4,-0.6,30.10,WSW,248,4.0,15.0,28,0.00,,,0.19,meteohub,2012-11-24 04:17:00,
2012-11-23 23:18:00,28.4,-0.6,30.10,WSW,248,4.0,15.0,28,0.00,,,0.19,meteohub,2012-11-24 04:18:00,
2012-11-23 23:19:00,28.4,-0.6,30.10,WSW,248,8.0,15.0,28,0.00,,,0.19,meteohub,2012-11-24 04:19:00,
2012-11-23 23:23:00,28.4,-0.6,30.10,West,270,6.0,15.0,28,0.00,,,0.19,meteohub,2012-11-24 04:23:00,
2012-11-23 23:24:00,28.4,-0.6,30.10,East,90,7.0,15.0,28,0.00,,,0.19,meteohub,2012-11-24 04:24:00,
2012-11-23 23:28:00,28.4,0.1,30.10,West,270,15.0,15.0,29,0.00,,,0.19,meteohub,2012-11-24 04:28:00,
2012-11-23 23:29:00,28.4,-0.6,30.10,West,270,9.0,13.0,28,0.00,,,0.19,meteohub,2012-11-24 04:29:00,
2012-11-23 23:30:00,28.4,-0.6,30.10,West,270,9.0,13.0,28,0.00,,,0.19,meteohub,2012-11-24 04:30:00,
2012-11-23 23:32:00,28.2,-0.8,30.10,NW,315,4.0,13.0,28,0.00,,,0.19,meteohub,2012-11-24 04:32:00,
2012-11-23 23:34:00,28.2,-0.8,30.10,West,270,20.0,20.0,28,0.00,,,0.19,meteohub,2012-11-24 04:34:00,
2012-11-23 23:35:00,28.2,-1.5,30.10,North,0,15.0,15.0,27,0.00,,,0.19,meteohub,2012-11-24 04:35:00,
2012-11-23 23:39:00,28.2,-0.8,30.10,South,180,7.0,20.0,28,0.00,,,0.19,meteohub,2012-11-24 04:39:00,
2012-11-23 23:40:00,28.0,-0.9,30.10,WSW,248,8.0,20.0,28,0.00,,,0.19,meteohub,2012-11-24 04:40:00,
2012-11-23 23:41:00,28.0,-1.7,30.10,West,270,11.0,20.0,27,0.00,,,0.19,meteohub,2012-11-24 04:41:00,
2012-11-23 23:44:00,28.0,-1.7,30.10,NW,315,6.0,20.0,27,0.00,,,0.19,meteohub,2012-11-24 04:44:00,
2012-11-23 23:45:00,28.0,-0.9,30.10,West,270,11.0,20.0,28,0.00,,,0.19,meteohub,2012-11-24 04:45:00,
2012-11-23 23:46:00,28.0,-1.7,30.09,WSW,248,6.0,20.0,27,0.00,,,0.19,meteohub,2012-11-24 04:46:00,
2012-11-23 23:50:00,27.9,-1.8,30.10,NW,315,11.0,20.0,27,0.00,,,0.19,meteohub,2012-11-24 04:50:00,
2012-11-23 23:51:00,27.9,-1.8,30.10,West,270,12.0,15.0,27,0.00,,,0.19,meteohub,2012-11-24 04:51:00,
2012-11-23 23:55:00,27.9,-1.1,30.10,NW,315,11.0,13.0,28,0.00,,,0.19,meteohub,2012-11-24 04:55:00,
2012-11-23 23:56:00,27.9,-1.1,30.10,North,0,8.0,13.0,28,0.00,,,0.19,meteohub,2012-11-24 04:56:00,